<?xml version='1.0' encoding='UTF-8'?><gpx version="1.1" creator="JPX - https://github.com/jenetics/jpx" xmlns="http://www.topografix.com/GPX/1/1"><trk><trkseg><trkpt lat="43.9114412" lon="12.9176317"><ele>3.9999999999999996</ele><time>2026-04-14T16:48:31.341Z</time></trkpt><trkpt lat="43.9115028" lon="12.9177117"><ele>4.0</ele><time>2026-04-14T16:48:35.371Z</time></trkpt><trkpt lat="43.9115571" lon="12.9177857"><ele>4.0</ele><time>2026-04-14T16:48:39.372Z</time></trkpt><trkpt lat="43.9116048" lon="12.9178538"><ele>4.0</ele><time>2026-04-14T16:48:42.364Z</time></trkpt><trkpt lat="43.9116536" lon="12.9179489"><ele>3.9999999999999996</ele><time>2026-04-14T16:48:45.362Z</time></trkpt><trkpt lat="43.9116992" lon="12.9180349"><ele>4.0</ele><time>2026-04-14T16:48:48.362Z</time></trkpt><trkpt lat="43.9117425" lon="12.9181061"><ele>4.142857142857142</ele><time>2026-04-14T16:48:51.376Z</time></trkpt><trkpt lat="43.9117934" lon="12.9181732"><ele>4.285714285714286</ele><time>2026-04-14T16:48:54.371Z</time></trkpt><trkpt lat="43.9118489" lon="12.9182498"><ele>4.428571428571429</ele><time>2026-04-14T16:48:58.376Z</time></trkpt><trkpt lat="43.9118766" lon="12.9183295"><ele>4.571428571428571</ele><time>2026-04-14T16:49:01.372Z</time></trkpt><trkpt lat="43.9119219" lon="12.918412"><ele>4.714285714285714</ele><time>2026-04-14T16:49:04.374Z</time></trkpt><trkpt lat="43.911979" lon="12.9184731"><ele>4.857142857142857</ele><time>2026-04-14T16:49:07.377Z</time></trkpt><trkpt lat="43.9120234" lon="12.9185428"><ele>5.0</ele><time>2026-04-14T16:49:10.379Z</time></trkpt><trkpt lat="43.9120648" lon="12.9186111"><ele>5.285714285714286</ele><time>2026-04-14T16:49:13.382Z</time></trkpt><trkpt lat="43.9121214" lon="12.9187"><ele>5.571428571428571</ele><time>2026-04-14T16:49:17.374Z</time></trkpt><trkpt lat="43.9121759" lon="12.9187571"><ele>5.857142857142858</ele><time>2026-04-14T16:49:20.374Z</time></trkpt><trkpt lat="43.9122254" lon="12.9188183"><ele>6.142857142857142</ele><time>2026-04-14T16:49:23.374Z</time></trkpt><trkpt lat="43.9122797" lon="12.918877"><ele>6.428571428571429</ele><time>2026-04-14T16:49:26.376Z</time></trkpt><trkpt lat="43.912339" lon="12.9189436"><ele>6.714285714285714</ele><time>2026-04-14T16:49:29.376Z</time></trkpt><trkpt lat="43.9123842" lon="12.919027"><ele>7.0</ele><time>2026-04-14T16:49:32.379Z</time></trkpt><trkpt lat="43.9124244" lon="12.9191044"><ele>7.0</ele><time>2026-04-14T16:49:35.377Z</time></trkpt><trkpt lat="43.912473" lon="12.9191671"><ele>7.0</ele><time>2026-04-14T16:49:38.37Z</time></trkpt><trkpt lat="43.9125125" lon="12.9192378"><ele>7.0</ele><time>2026-04-14T16:49:41.375Z</time></trkpt><trkpt lat="43.9125474" lon="12.9193223"><ele>7.0</ele><time>2026-04-14T16:49:44.377Z</time></trkpt><trkpt lat="43.9125981" lon="12.9193963"><ele>7.0</ele><time>2026-04-14T16:49:48.38Z</time></trkpt><trkpt lat="43.9126491" lon="12.9194699"><ele>7.0</ele><time>2026-04-14T16:49:52.383Z</time></trkpt><trkpt lat="43.9126825" lon="12.9195477"><ele>7.0</ele><time>2026-04-14T16:49:55.381Z</time></trkpt><trkpt lat="43.9127394" lon="12.9196213"><ele>6.285714285714286</ele><time>2026-04-14T16:49:59.394Z</time></trkpt><trkpt lat="43.9127988" lon="12.9197162"><ele>5.571428571428571</ele><time>2026-04-14T16:50:02.365Z</time></trkpt><trkpt lat="43.9128383" lon="12.919794"><ele>4.857142857142857</ele><time>2026-04-14T16:50:05.363Z</time></trkpt><trkpt lat="43.9128907" lon="12.9198562"><ele>4.142857142857142</ele><time>2026-04-14T16:50:08.371Z</time></trkpt><trkpt lat="43.9129305" lon="12.9199252"><ele>3.4285714285714284</ele><time>2026-04-14T16:50:11.372Z</time></trkpt><trkpt lat="43.9129782" lon="12.9199859"><ele>2.7142857142857144</ele><time>2026-04-14T16:50:14.365Z</time></trkpt><trkpt lat="43.9130118" lon="12.9200717"><ele>2.0</ele><time>2026-04-14T16:50:17.358Z</time></trkpt><trkpt lat="43.9130583" lon="12.9201545"><ele>1.6666666666666665</ele><time>2026-04-14T16:50:21.37Z</time></trkpt><trkpt lat="43.9130346" lon="12.9202556"><ele>1.3333333333333333</ele><time>2026-04-14T16:50:25.359Z</time></trkpt><trkpt lat="43.9129878" lon="12.9203541"><ele>1.0</ele><time>2026-04-14T16:50:28.364Z</time></trkpt><trkpt lat="43.9129557" lon="12.9204649"><ele>0.6666666666666666</ele><time>2026-04-14T16:50:31.371Z</time></trkpt><trkpt lat="43.9129097" lon="12.9205282"><ele>0.3333333333333333</ele><time>2026-04-14T16:50:34.385Z</time></trkpt><trkpt lat="43.9128329" lon="12.9205747"><ele>0.0</ele><time>2026-04-14T16:50:37.379Z</time></trkpt><trkpt lat="43.9127752" lon="12.9206535"><ele>0.0</ele><time>2026-04-14T16:50:41.378Z</time></trkpt><trkpt lat="43.9127278" lon="12.9207218"><ele>0.0</ele><time>2026-04-14T16:50:44.385Z</time></trkpt><trkpt lat="43.9126677" lon="12.9207921"><ele>0.0</ele><time>2026-04-14T16:50:48.378Z</time></trkpt><trkpt lat="43.9126149" lon="12.9208602"><ele>0.0</ele><time>2026-04-14T16:50:51.375Z</time></trkpt><trkpt lat="43.9125728" lon="12.9209332"><ele>0.0</ele><time>2026-04-14T16:50:53.384Z</time></trkpt><trkpt lat="43.9125359" lon="12.9210282"><ele>0.0</ele><time>2026-04-14T16:50:58.366Z</time></trkpt><trkpt lat="43.912482" lon="12.9210856"><ele>0.0</ele><time>2026-04-14T16:51:01.384Z</time></trkpt><trkpt lat="43.9124289" lon="12.9211439"><ele>0.0</ele><time>2026-04-14T16:51:04.366Z</time></trkpt><trkpt lat="43.9123747" lon="12.9211946"><ele>0.0</ele><time>2026-04-14T16:51:06.383Z</time></trkpt><trkpt lat="43.9122977" lon="12.9212437"><ele>0.0</ele><time>2026-04-14T16:51:09.362Z</time></trkpt><trkpt lat="43.9122466" lon="12.9213047"><ele>0.0</ele><time>2026-04-14T16:51:13.367Z</time></trkpt><trkpt lat="43.9122004" lon="12.9213669"><ele>0.0</ele><time>2026-04-14T16:51:16.377Z</time></trkpt><trkpt lat="43.9121407" lon="12.9214492"><ele>0.0</ele><time>2026-04-14T16:51:19.378Z</time></trkpt><trkpt lat="43.9120807" lon="12.9215206"><ele>0.0</ele><time>2026-04-14T16:51:22.376Z</time></trkpt><trkpt lat="43.9120371" lon="12.9215839"><ele>0.0</ele><time>2026-04-14T16:51:25.362Z</time></trkpt><trkpt lat="43.9119771" lon="12.9216396"><ele>0.0</ele><time>2026-04-14T16:51:28.37Z</time></trkpt><trkpt lat="43.9119172" lon="12.9217054"><ele>0.0</ele><time>2026-04-14T16:51:31.391Z</time></trkpt><trkpt lat="43.9118624" lon="12.9217617"><ele>0.0</ele><time>2026-04-14T16:51:34.367Z</time></trkpt><trkpt lat="43.9118007" lon="12.9218319"><ele>0.0</ele><time>2026-04-14T16:51:38.358Z</time></trkpt><trkpt lat="43.9117565" lon="12.9219136"><ele>0.0</ele><time>2026-04-14T16:51:42.362Z</time></trkpt><trkpt lat="43.9116861" lon="12.9219348"><ele>0.0</ele><time>2026-04-14T16:51:45.367Z</time></trkpt><trkpt lat="43.9116303" lon="12.92199"><ele>0.0</ele><time>2026-04-14T16:51:48.366Z</time></trkpt><trkpt lat="43.9115744" lon="12.9220928"><ele>0.0</ele><time>2026-04-14T16:51:51.345Z</time></trkpt><trkpt lat="43.9115379" lon="12.922167"><ele>0.0</ele><time>2026-04-14T16:51:53.35Z</time></trkpt><trkpt lat="43.911459" lon="12.9221858"><ele>0.0</ele><time>2026-04-14T16:51:57.346Z</time></trkpt><trkpt lat="43.9113884" lon="12.9222154"><ele>0.0</ele><time>2026-04-14T16:52:00.349Z</time></trkpt><trkpt lat="43.9113371" lon="12.9222699"><ele>0.0</ele><time>2026-04-14T16:52:03.381Z</time></trkpt><trkpt lat="43.9112977" lon="12.9223437"><ele>0.0</ele><time>2026-04-14T16:52:06.347Z</time></trkpt><trkpt lat="43.911264" lon="12.9224257"><ele>0.0</ele><time>2026-04-14T16:52:09.335Z</time></trkpt><trkpt lat="43.9112041" lon="12.9225066"><ele>0.0</ele><time>2026-04-14T16:52:13.351Z</time></trkpt><trkpt lat="43.9111548" lon="12.9225903"><ele>0.0</ele><time>2026-04-14T16:52:16.35Z</time></trkpt><trkpt lat="43.9110937" lon="12.922668"><ele>0.0</ele><time>2026-04-14T16:52:19.352Z</time></trkpt><trkpt lat="43.9110362" lon="12.9227421"><ele>0.0</ele><time>2026-04-14T16:52:22.355Z</time></trkpt><trkpt lat="43.9109827" lon="12.9228345"><ele>0.0</ele><time>2026-04-14T16:52:25.347Z</time></trkpt><trkpt lat="43.9109637" lon="12.9229191"><ele>0.0</ele><time>2026-04-14T16:52:27.351Z</time></trkpt><trkpt lat="43.9109252" lon="12.9230133"><ele>0.0</ele><time>2026-04-14T16:52:31.352Z</time></trkpt><trkpt lat="43.9108715" lon="12.923069"><ele>0.0</ele><time>2026-04-14T16:52:34.35Z</time></trkpt><trkpt lat="43.9108084" lon="12.9231326"><ele>0.0</ele><time>2026-04-14T16:52:38.346Z</time></trkpt><trkpt lat="43.9107532" lon="12.9232151"><ele>0.0</ele><time>2026-04-14T16:52:42.342Z</time></trkpt><trkpt lat="43.9106913" lon="12.9232767"><ele>0.0</ele><time>2026-04-14T16:52:46.353Z</time></trkpt><trkpt lat="43.9106286" lon="12.9232233"><ele>0.5</ele><time>2026-04-14T16:52:50.349Z</time></trkpt><trkpt lat="43.9105746" lon="12.9231529"><ele>1.0</ele><time>2026-04-14T16:52:53.32Z</time></trkpt><trkpt lat="43.9105393" lon="12.9230516"><ele>1.5</ele><time>2026-04-14T16:52:56.317Z</time></trkpt><trkpt lat="43.9105289" lon="12.9229444"><ele>2.0</ele><time>2026-04-14T16:53:01.307Z</time></trkpt><trkpt lat="43.9104926" lon="12.9228471"><ele>2.5</ele><time>2026-04-14T16:53:04.349Z</time></trkpt><trkpt lat="43.9104498" lon="12.9227479"><ele>3.0</ele><time>2026-04-14T16:53:06.339Z</time></trkpt><trkpt lat="43.9103542" lon="12.9227187"><ele>3.0</ele><time>2026-04-14T16:53:08.349Z</time></trkpt><trkpt lat="43.9102878" lon="12.9227589"><ele>3.0</ele><time>2026-04-14T16:53:10.353Z</time></trkpt><trkpt lat="43.9102291" lon="12.9228495"><ele>3.0</ele><time>2026-04-14T16:53:14.363Z</time></trkpt><trkpt lat="43.9101808" lon="12.922929"><ele>3.0</ele><time>2026-04-14T16:53:17.361Z</time></trkpt><trkpt lat="43.9101387" lon="12.9230203"><ele>3.0</ele><time>2026-04-14T16:53:20.361Z</time></trkpt><trkpt lat="43.910095" lon="12.9231162"><ele>3.0</ele><time>2026-04-14T16:53:24.364Z</time></trkpt><trkpt lat="43.9100149" lon="12.9232051"><ele>3.1428571428571423</ele><time>2026-04-14T16:53:29.047Z</time></trkpt><trkpt lat="43.9099449" lon="12.9232506"><ele>3.2857142857142856</ele><time>2026-04-14T16:53:32.052Z</time></trkpt><trkpt lat="43.9099053" lon="12.9233215"><ele>3.4285714285714284</ele><time>2026-04-14T16:53:35.853Z</time></trkpt><trkpt lat="43.9098557" lon="12.923416"><ele>3.571428571428571</ele><time>2026-04-14T16:53:37.862Z</time></trkpt><trkpt lat="43.9098046" lon="12.9234866"><ele>3.714285714285714</ele><time>2026-04-14T16:53:40.853Z</time></trkpt><trkpt lat="43.9097757" lon="12.9235793"><ele>3.8571428571428568</ele><time>2026-04-14T16:53:43.844Z</time></trkpt><trkpt lat="43.9097194" lon="12.9236238"><ele>4.0</ele><time>2026-04-14T16:53:46.831Z</time></trkpt><trkpt lat="43.9096756" lon="12.9235568"><ele>3.4285714285714284</ele><time>2026-04-14T16:53:48.823Z</time></trkpt><trkpt lat="43.9096216" lon="12.9236369"><ele>2.8571428571428568</ele><time>2026-04-14T16:53:51.825Z</time></trkpt><trkpt lat="43.9095996" lon="12.9237557"><ele>2.2857142857142856</ele><time>2026-04-14T16:53:54.852Z</time></trkpt><trkpt lat="43.9095505" lon="12.9238258"><ele>1.7142857142857142</ele><time>2026-04-14T16:53:58.856Z</time></trkpt><trkpt lat="43.9094947" lon="12.9238759"><ele>1.1428571428571428</ele><time>2026-04-14T16:54:01.86Z</time></trkpt><trkpt lat="43.9094379" lon="12.9239186"><ele>0.5714285714285714</ele><time>2026-04-14T16:54:04.84Z</time></trkpt><trkpt lat="43.9093865" lon="12.923994"><ele>0.0</ele><time>2026-04-14T16:54:08.844Z</time></trkpt><trkpt lat="43.9093225" lon="12.9240711"><ele>0.0</ele><time>2026-04-14T16:54:11.839Z</time></trkpt><trkpt lat="43.9092971" lon="12.9241805"><ele>0.0</ele><time>2026-04-14T16:54:15.84Z</time></trkpt><trkpt lat="43.9092253" lon="12.9242551"><ele>0.0</ele><time>2026-04-14T16:54:18.818Z</time></trkpt><trkpt lat="43.9091659" lon="12.9243325"><ele>0.0</ele><time>2026-04-14T16:54:21.821Z</time></trkpt><trkpt lat="43.9091017" lon="12.9244071"><ele>0.0</ele><time>2026-04-14T16:54:24.829Z</time></trkpt><trkpt lat="43.9090323" lon="12.9244999"><ele>0.0</ele><time>2026-04-14T16:54:27.831Z</time></trkpt><trkpt lat="43.9089812" lon="12.9245908"><ele>0.16666666666666666</ele><time>2026-04-14T16:54:30.822Z</time></trkpt><trkpt lat="43.9089401" lon="12.9246894"><ele>0.3333333333333333</ele><time>2026-04-14T16:54:33.83Z</time></trkpt><trkpt lat="43.9089009" lon="12.9247679"><ele>0.5</ele><time>2026-04-14T16:54:35.824Z</time></trkpt><trkpt lat="43.9088454" lon="12.9248737"><ele>0.6666666666666666</ele><time>2026-04-14T16:54:40.808Z</time></trkpt><trkpt lat="43.9087805" lon="12.9249513"><ele>0.8333333333333333</ele><time>2026-04-14T16:54:44.836Z</time></trkpt><trkpt lat="43.9087319" lon="12.9250168"><ele>1.0</ele><time>2026-04-14T16:54:47.851Z</time></trkpt><trkpt lat="43.9086617" lon="12.925075"><ele>1.0</ele><time>2026-04-14T16:54:50.855Z</time></trkpt><trkpt lat="43.9086058" lon="12.9251439"><ele>0.9999999999999999</ele><time>2026-04-14T16:54:53.856Z</time></trkpt><trkpt lat="43.9085397" lon="12.9251864"><ele>1.0</ele><time>2026-04-14T16:54:56.857Z</time></trkpt><trkpt lat="43.9084799" lon="12.9252517"><ele>1.0</ele><time>2026-04-14T16:55:00.842Z</time></trkpt><trkpt lat="43.9084386" lon="12.925319"><ele>0.9999999999999999</ele><time>2026-04-14T16:55:02.843Z</time></trkpt><trkpt lat="43.9083921" lon="12.92538"><ele>1.0</ele><time>2026-04-14T16:55:04.851Z</time></trkpt><trkpt lat="43.9083141" lon="12.9254344"><ele>1.0</ele><time>2026-04-14T16:55:07.851Z</time></trkpt><trkpt lat="43.9082529" lon="12.9255042"><ele>0.9999999999999999</ele><time>2026-04-14T16:55:10.846Z</time></trkpt><trkpt lat="43.9082126" lon="12.9255814"><ele>1.0</ele><time>2026-04-14T16:55:13.831Z</time></trkpt><trkpt lat="43.9082184" lon="12.9256747"><ele>1.0</ele><time>2026-04-14T16:55:16.839Z</time></trkpt><trkpt lat="43.9082036" lon="12.9258504"><ele>1.0</ele><time>2026-04-14T16:55:18.83Z</time></trkpt><trkpt lat="43.9081359" lon="12.9258999"><ele>0.9999999999999999</ele><time>2026-04-14T16:55:21.84Z</time></trkpt><trkpt lat="43.9080726" lon="12.925948"><ele>1.0</ele><time>2026-04-14T16:55:24.846Z</time></trkpt><trkpt lat="43.9080135" lon="12.9259913"><ele>1.0</ele><time>2026-04-14T16:55:27.838Z</time></trkpt><trkpt lat="43.907947" lon="12.926033"><ele>0.9999999999999999</ele><time>2026-04-14T16:55:30.834Z</time></trkpt><trkpt lat="43.9078784" lon="12.9260681"><ele>1.0</ele><time>2026-04-14T16:55:33.836Z</time></trkpt><trkpt lat="43.9078109" lon="12.9261357"><ele>1.0</ele><time>2026-04-14T16:55:35.848Z</time></trkpt><trkpt lat="43.9077468" lon="12.9261786"><ele>0.9999999999999999</ele><time>2026-04-14T16:55:39.861Z</time></trkpt><trkpt lat="43.9076994" lon="12.9262536"><ele>1.0</ele><time>2026-04-14T16:55:42.846Z</time></trkpt><trkpt lat="43.9076668" lon="12.9263325"><ele>1.0</ele><time>2026-04-14T16:55:44.85Z</time></trkpt><trkpt lat="43.907616" lon="12.926409"><ele>1.1666666666666665</ele><time>2026-04-14T16:55:47.865Z</time></trkpt><trkpt lat="43.9075704" lon="12.926491"><ele>1.3333333333333333</ele><time>2026-04-14T16:55:50.852Z</time></trkpt><trkpt lat="43.9075266" lon="12.9265778"><ele>1.5</ele><time>2026-04-14T16:55:53.852Z</time></trkpt><trkpt lat="43.9074922" lon="12.926659"><ele>1.6666666666666665</ele><time>2026-04-14T16:55:56.824Z</time></trkpt><trkpt lat="43.9074365" lon="12.9267296"><ele>1.8333333333333333</ele><time>2026-04-14T16:55:59.826Z</time></trkpt><trkpt lat="43.9073581" lon="12.9268135"><ele>2.0</ele><time>2026-04-14T16:56:02.811Z</time></trkpt><trkpt lat="43.9072987" lon="12.9268723"><ele>2.833333333333333</ele><time>2026-04-14T16:56:05.816Z</time></trkpt><trkpt lat="43.9072229" lon="12.9269155"><ele>3.666666666666667</ele><time>2026-04-14T16:56:09.842Z</time></trkpt><trkpt lat="43.9072" lon="12.9269989"><ele>4.5</ele><time>2026-04-14T16:56:12.827Z</time></trkpt><trkpt lat="43.9071569" lon="12.9270755"><ele>5.333333333333334</ele><time>2026-04-14T16:56:15.83Z</time></trkpt><trkpt lat="43.9071023" lon="12.9271729"><ele>6.166666666666667</ele><time>2026-04-14T16:56:18.825Z</time></trkpt><trkpt lat="43.9070455" lon="12.9272294"><ele>7.0</ele><time>2026-04-14T16:56:21.823Z</time></trkpt><trkpt lat="43.9069839" lon="12.9273114"><ele>7.0</ele><time>2026-04-14T16:56:24.831Z</time></trkpt><trkpt lat="43.9069346" lon="12.927381"><ele>7.0</ele><time>2026-04-14T16:56:27.83Z</time></trkpt><trkpt lat="43.9068795" lon="12.9274597"><ele>7.0</ele><time>2026-04-14T16:56:30.83Z</time></trkpt><trkpt lat="43.9068365" lon="12.9275297"><ele>7.0</ele><time>2026-04-14T16:56:33.837Z</time></trkpt><trkpt lat="43.9067818" lon="12.927609"><ele>7.0</ele><time>2026-04-14T16:56:36.833Z</time></trkpt><trkpt lat="43.9067396" lon="12.9276785"><ele>7.0</ele><time>2026-04-14T16:56:39.838Z</time></trkpt><trkpt lat="43.9066929" lon="12.9277692"><ele>7.0</ele><time>2026-04-14T16:56:42.835Z</time></trkpt><trkpt lat="43.9066492" lon="12.9278454"><ele>6.000000000000001</ele><time>2026-04-14T16:56:45.842Z</time></trkpt><trkpt lat="43.9066178" lon="12.9279472"><ele>5.0</ele><time>2026-04-14T16:56:48.839Z</time></trkpt><trkpt lat="43.9065806" lon="12.9280447"><ele>4.0</ele><time>2026-04-14T16:56:51.833Z</time></trkpt><trkpt lat="43.9065343" lon="12.9281419"><ele>3.0</ele><time>2026-04-14T16:56:54.843Z</time></trkpt><trkpt lat="43.9065302" lon="12.9282466"><ele>2.0</ele><time>2026-04-14T16:56:57.839Z</time></trkpt><trkpt lat="43.9065289" lon="12.9283667"><ele>1.0</ele><time>2026-04-14T16:57:00.839Z</time></trkpt><trkpt lat="43.9064923" lon="12.9284532"><ele>1.0</ele><time>2026-04-14T16:57:03.843Z</time></trkpt><trkpt lat="43.9064116" lon="12.9284552"><ele>0.9999999999999999</ele><time>2026-04-14T16:57:07.847Z</time></trkpt><trkpt lat="43.9063478" lon="12.9284071"><ele>1.0</ele><time>2026-04-14T16:57:10.855Z</time></trkpt><trkpt lat="43.9062836" lon="12.9283884"><ele>1.0</ele><time>2026-04-14T16:57:13.841Z</time></trkpt><trkpt lat="43.9062441" lon="12.9284692"><ele>0.9999999999999999</ele><time>2026-04-14T16:57:15.833Z</time></trkpt><trkpt lat="43.9061964" lon="12.9285498"><ele>1.0</ele><time>2026-04-14T16:57:18.835Z</time></trkpt><trkpt lat="43.9061495" lon="12.9286326"><ele>1.0</ele><time>2026-04-14T16:57:21.836Z</time></trkpt><trkpt lat="43.906094" lon="12.9287271"><ele>1.0</ele><time>2026-04-14T16:57:24.839Z</time></trkpt><trkpt lat="43.9060557" lon="12.9288007"><ele>0.9999999999999999</ele><time>2026-04-14T16:57:26.825Z</time></trkpt><trkpt lat="43.9060225" lon="12.9288917"><ele>1.0</ele><time>2026-04-14T16:57:29.838Z</time></trkpt><trkpt lat="43.9059809" lon="12.928986"><ele>1.0</ele><time>2026-04-14T16:57:33.837Z</time></trkpt><trkpt lat="43.9059391" lon="12.9290579"><ele>0.9999999999999999</ele><time>2026-04-14T16:57:36.835Z</time></trkpt><trkpt lat="43.9059052" lon="12.929148"><ele>1.0</ele><time>2026-04-14T16:57:39.84Z</time></trkpt><trkpt lat="43.9058632" lon="12.9292367"><ele>1.0</ele><time>2026-04-14T16:57:42.832Z</time></trkpt><trkpt lat="43.9058299" lon="12.9293112"><ele>1.0</ele><time>2026-04-14T16:57:45.836Z</time></trkpt><trkpt lat="43.9057922" lon="12.9293964"><ele>0.9999999999999999</ele><time>2026-04-14T16:57:48.835Z</time></trkpt><trkpt lat="43.905746" lon="12.9294731"><ele>1.0</ele><time>2026-04-14T16:57:51.843Z</time></trkpt><trkpt lat="43.9056984" lon="12.9295665"><ele>1.0</ele><time>2026-04-14T16:57:54.833Z</time></trkpt><trkpt lat="43.9056685" lon="12.9296608"><ele>0.9999999999999999</ele><time>2026-04-14T16:57:57.838Z</time></trkpt><trkpt lat="43.9056356" lon="12.9297376"><ele>1.0</ele><time>2026-04-14T16:58:00.828Z</time></trkpt><trkpt lat="43.9055911" lon="12.9298317"><ele>1.0</ele><time>2026-04-14T16:58:03.831Z</time></trkpt><trkpt lat="43.90554" lon="12.9299139"><ele>0.9999999999999999</ele><time>2026-04-14T16:58:06.827Z</time></trkpt><trkpt lat="43.905484" lon="12.9300056"><ele>1.0</ele><time>2026-04-14T16:58:09.835Z</time></trkpt><trkpt lat="43.9054361" lon="12.9300654"><ele>1.0</ele><time>2026-04-14T16:58:11.827Z</time></trkpt><trkpt lat="43.9053707" lon="12.9301452"><ele>1.0</ele><time>2026-04-14T16:58:14.823Z</time></trkpt><trkpt lat="43.9053214" lon="12.9302006"><ele>0.9999999999999999</ele><time>2026-04-14T16:58:17.832Z</time></trkpt><trkpt lat="43.9052684" lon="12.9302858"><ele>1.0</ele><time>2026-04-14T16:58:21.827Z</time></trkpt><trkpt lat="43.9052068" lon="12.9303634"><ele>0.9999999999999999</ele><time>2026-04-14T16:58:25.834Z</time></trkpt><trkpt lat="43.9051453" lon="12.9304546"><ele>1.0</ele><time>2026-04-14T16:58:28.836Z</time></trkpt><trkpt lat="43.9050802" lon="12.9305077"><ele>1.0</ele><time>2026-04-14T16:58:31.838Z</time></trkpt><trkpt lat="43.9050275" lon="12.9305695"><ele>1.0</ele><time>2026-04-14T16:58:34.83Z</time></trkpt><trkpt lat="43.904973" lon="12.9306426"><ele>0.9999999999999999</ele><time>2026-04-14T16:58:37.825Z</time></trkpt><trkpt lat="43.9049074" lon="12.9307148"><ele>1.0</ele><time>2026-04-14T16:58:40.821Z</time></trkpt><trkpt lat="43.9048304" lon="12.9307881"><ele>1.0</ele><time>2026-04-14T16:58:43.8Z</time></trkpt><trkpt lat="43.9048017" lon="12.9308752"><ele>0.9999999999999999</ele><time>2026-04-14T16:58:47.82Z</time></trkpt><trkpt lat="43.9047695" lon="12.9309777"><ele>1.0</ele><time>2026-04-14T16:58:50.824Z</time></trkpt><trkpt lat="43.9047317" lon="12.9310521"><ele>1.0</ele><time>2026-04-14T16:58:53.83Z</time></trkpt><trkpt lat="43.9046639" lon="12.9311089"><ele>0.9999999999999999</ele><time>2026-04-14T16:58:56.828Z</time></trkpt><trkpt lat="43.904611" lon="12.9311788"><ele>1.0</ele><time>2026-04-14T16:58:59.835Z</time></trkpt><trkpt lat="43.9045627" lon="12.9312597"><ele>1.0</ele><time>2026-04-14T16:59:02.83Z</time></trkpt><trkpt lat="43.9045099" lon="12.9313439"><ele>0.9999999999999999</ele><time>2026-04-14T16:59:05.821Z</time></trkpt><trkpt lat="43.9044558" lon="12.9314294"><ele>1.0</ele><time>2026-04-14T16:59:08.822Z</time></trkpt><trkpt lat="43.9043858" lon="12.9314983"><ele>1.0</ele><time>2026-04-14T16:59:11.823Z</time></trkpt><trkpt lat="43.904329" lon="12.9315454"><ele>1.0</ele><time>2026-04-14T16:59:14.822Z</time></trkpt><trkpt lat="43.9042813" lon="12.9316178"><ele>0.9999999999999999</ele><time>2026-04-14T16:59:17.83Z</time></trkpt><trkpt lat="43.9042312" lon="12.9317013"><ele>1.0</ele><time>2026-04-14T16:59:20.831Z</time></trkpt><trkpt lat="43.9041801" lon="12.9317715"><ele>1.0</ele><time>2026-04-14T16:59:23.823Z</time></trkpt><trkpt lat="43.9041931" lon="12.9318811"><ele>0.9999999999999999</ele><time>2026-04-14T16:59:26.828Z</time></trkpt><trkpt lat="43.9042104" lon="12.9319718"><ele>1.0</ele><time>2026-04-14T16:59:29.833Z</time></trkpt><trkpt lat="43.9041586" lon="12.9320514"><ele>1.0</ele><time>2026-04-14T16:59:32.826Z</time></trkpt><trkpt lat="43.9040967" lon="12.9321006"><ele>0.9999999999999999</ele><time>2026-04-14T16:59:34.826Z</time></trkpt><trkpt lat="43.9040383" lon="12.9321515"><ele>1.0</ele><time>2026-04-14T16:59:36.817Z</time></trkpt><trkpt lat="43.9040063" lon="12.9322383"><ele>1.0</ele><time>2026-04-14T16:59:39.815Z</time></trkpt><trkpt lat="43.903957" lon="12.9322981"><ele>0.9999999999999999</ele><time>2026-04-14T16:59:42.85Z</time></trkpt><trkpt lat="43.9039011" lon="12.9323534"><ele>1.0</ele><time>2026-04-14T16:59:45.837Z</time></trkpt><trkpt lat="43.903832" lon="12.9324121"><ele>1.0</ele><time>2026-04-14T16:59:49.822Z</time></trkpt><trkpt lat="43.9037767" lon="12.9324827"><ele>1.0</ele><time>2026-04-14T16:59:52.831Z</time></trkpt><trkpt lat="43.903713" lon="12.9325479"><ele>0.9999999999999999</ele><time>2026-04-14T16:59:55.833Z</time></trkpt><trkpt lat="43.9036512" lon="12.9325955"><ele>1.0</ele><time>2026-04-14T16:59:58.827Z</time></trkpt><trkpt lat="43.9035865" lon="12.9326627"><ele>0.9999999999999999</ele><time>2026-04-14T17:00:02.802Z</time></trkpt><trkpt lat="43.9035514" lon="12.932738"><ele>1.0</ele><time>2026-04-14T17:00:05.789Z</time></trkpt><trkpt lat="43.903501" lon="12.9327907"><ele>1.0</ele><time>2026-04-14T17:00:09.802Z</time></trkpt><trkpt lat="43.9034796" lon="12.9329043"><ele>1.0</ele><time>2026-04-14T17:00:12.787Z</time></trkpt><trkpt lat="43.9034304" lon="12.9329983"><ele>0.9999999999999999</ele><time>2026-04-14T17:00:15.801Z</time></trkpt><trkpt lat="43.9033603" lon="12.9330689"><ele>1.0</ele><time>2026-04-14T17:00:18.805Z</time></trkpt><trkpt lat="43.9032928" lon="12.9331368"><ele>0.9999999999999999</ele><time>2026-04-14T17:00:21.803Z</time></trkpt><trkpt lat="43.9032311" lon="12.9332129"><ele>1.0</ele><time>2026-04-14T17:00:24.807Z</time></trkpt><trkpt lat="43.903144" lon="12.9332487"><ele>1.0</ele><time>2026-04-14T17:00:27.806Z</time></trkpt><trkpt lat="43.9030678" lon="12.9332983"><ele>1.0</ele><time>2026-04-14T17:00:30.813Z</time></trkpt><trkpt lat="43.9030247" lon="12.9333832"><ele>0.9999999999999999</ele><time>2026-04-14T17:00:33.811Z</time></trkpt><trkpt lat="43.9029736" lon="12.9334581"><ele>1.0</ele><time>2026-04-14T17:00:36.817Z</time></trkpt><trkpt lat="43.9029196" lon="12.9335258"><ele>1.0</ele><time>2026-04-14T17:00:39.823Z</time></trkpt><trkpt lat="43.9028731" lon="12.9336014"><ele>0.9999999999999999</ele><time>2026-04-14T17:00:42.825Z</time></trkpt><trkpt lat="43.9028195" lon="12.9336752"><ele>1.0</ele><time>2026-04-14T17:00:45.821Z</time></trkpt><trkpt lat="43.9027639" lon="12.9337451"><ele>1.0</ele><time>2026-04-14T17:00:48.812Z</time></trkpt><trkpt lat="43.9027212" lon="12.933814"><ele>0.9999999999999999</ele><time>2026-04-14T17:00:51.822Z</time></trkpt><trkpt lat="43.9026633" lon="12.9338878"><ele>1.0</ele><time>2026-04-14T17:00:54.804Z</time></trkpt><trkpt lat="43.9026038" lon="12.9339557"><ele>1.0</ele><time>2026-04-14T17:00:57.807Z</time></trkpt><trkpt lat="43.9025496" lon="12.9340241"><ele>0.9999999999999999</ele><time>2026-04-14T17:01:00.808Z</time></trkpt><trkpt lat="43.9025042" lon="12.9340847"><ele>1.0</ele><time>2026-04-14T17:01:03.806Z</time></trkpt><trkpt lat="43.9024774" lon="12.9341776"><ele>1.0</ele><time>2026-04-14T17:01:06.799Z</time></trkpt><trkpt lat="43.9024139" lon="12.9342732"><ele>1.0</ele><time>2026-04-14T17:01:09.799Z</time></trkpt><trkpt lat="43.9023631" lon="12.9343359"><ele>0.9999999999999999</ele><time>2026-04-14T17:01:11.815Z</time></trkpt><trkpt lat="43.9023161" lon="12.9344477"><ele>1.0</ele><time>2026-04-14T17:01:13.823Z</time></trkpt><trkpt lat="43.902282" lon="12.9345278"><ele>0.8571428571428571</ele><time>2026-04-14T17:01:14.802Z</time></trkpt><trkpt lat="43.9022396" lon="12.9346256"><ele>0.7142857142857142</ele><time>2026-04-14T17:01:16.811Z</time></trkpt><trkpt lat="43.9021802" lon="12.9346599"><ele>0.5714285714285714</ele><time>2026-04-14T17:01:20.807Z</time></trkpt><trkpt lat="43.9021133" lon="12.9346809"><ele>0.42857142857142855</ele><time>2026-04-14T17:01:23.803Z</time></trkpt><trkpt lat="43.9020501" lon="12.9347273"><ele>0.2857142857142857</ele><time>2026-04-14T17:01:26.806Z</time></trkpt><trkpt lat="43.9019804" lon="12.934801"><ele>0.14285714285714285</ele><time>2026-04-14T17:01:29.815Z</time></trkpt><trkpt lat="43.9019254" lon="12.9348636"><ele>0.0</ele><time>2026-04-14T17:01:31.815Z</time></trkpt><trkpt lat="43.9018669" lon="12.9349203"><ele>0.0</ele><time>2026-04-14T17:01:33.813Z</time></trkpt><trkpt lat="43.9018215" lon="12.9349947"><ele>0.0</ele><time>2026-04-14T17:01:36.815Z</time></trkpt><trkpt lat="43.9017676" lon="12.9350769"><ele>0.0</ele><time>2026-04-14T17:01:39.818Z</time></trkpt><trkpt lat="43.9017118" lon="12.9351604"><ele>0.0</ele><time>2026-04-14T17:01:42.82Z</time></trkpt><trkpt lat="43.9016654" lon="12.935251"><ele>0.0</ele><time>2026-04-14T17:01:45.82Z</time></trkpt><trkpt lat="43.9016255" lon="12.9353421"><ele>0.0</ele><time>2026-04-14T17:01:48.822Z</time></trkpt><trkpt lat="43.9015857" lon="12.935427"><ele>0.0</ele><time>2026-04-14T17:01:51.834Z</time></trkpt><trkpt lat="43.9015489" lon="12.9355258"><ele>0.0</ele><time>2026-04-14T17:01:54.822Z</time></trkpt><trkpt lat="43.9015064" lon="12.9356308"><ele>0.0</ele><time>2026-04-14T17:01:57.829Z</time></trkpt><trkpt lat="43.9014653" lon="12.9357297"><ele>0.0</ele><time>2026-04-14T17:02:00.828Z</time></trkpt><trkpt lat="43.9014267" lon="12.9358196"><ele>0.0</ele><time>2026-04-14T17:02:04.823Z</time></trkpt><trkpt lat="43.9013765" lon="12.9358834"><ele>0.0</ele><time>2026-04-14T17:02:08.819Z</time></trkpt><trkpt lat="43.9013155" lon="12.9359478"><ele>0.0</ele><time>2026-04-14T17:02:11.814Z</time></trkpt><trkpt lat="43.9012408" lon="12.9360269"><ele>0.0</ele><time>2026-04-14T17:02:14.823Z</time></trkpt><trkpt lat="43.9011847" lon="12.9360778"><ele>0.0</ele><time>2026-04-14T17:02:16.815Z</time></trkpt><trkpt lat="43.901122" lon="12.9361619"><ele>0.0</ele><time>2026-04-14T17:02:19.808Z</time></trkpt><trkpt lat="43.9010656" lon="12.9362622"><ele>0.0</ele><time>2026-04-14T17:02:22.819Z</time></trkpt><trkpt lat="43.9010027" lon="12.9363379"><ele>0.0</ele><time>2026-04-14T17:02:24.81Z</time></trkpt><trkpt lat="43.9009423" lon="12.9363974"><ele>0.0</ele><time>2026-04-14T17:02:27.814Z</time></trkpt><trkpt lat="43.9008963" lon="12.9364588"><ele>0.0</ele><time>2026-04-14T17:02:30.835Z</time></trkpt><trkpt lat="43.9008406" lon="12.9365225"><ele>0.0</ele><time>2026-04-14T17:02:33.841Z</time></trkpt><trkpt lat="43.9007775" lon="12.9365919"><ele>0.0</ele><time>2026-04-14T17:02:36.832Z</time></trkpt><trkpt lat="43.9007198" lon="12.9366609"><ele>0.0</ele><time>2026-04-14T17:02:39.828Z</time></trkpt><trkpt lat="43.90067" lon="12.9367465"><ele>0.0</ele><time>2026-04-14T17:02:42.81Z</time></trkpt><trkpt lat="43.9006181" lon="12.936844"><ele>0.0</ele><time>2026-04-14T17:02:45.797Z</time></trkpt><trkpt lat="43.9005672" lon="12.9368987"><ele>0.0</ele><time>2026-04-14T17:02:48.803Z</time></trkpt><trkpt lat="43.9005079" lon="12.9369969"><ele>0.0</ele><time>2026-04-14T17:02:52.812Z</time></trkpt><trkpt lat="43.9004628" lon="12.9370657"><ele>0.0</ele><time>2026-04-14T17:02:54.811Z</time></trkpt><trkpt lat="43.9004177" lon="12.937142"><ele>0.0</ele><time>2026-04-14T17:02:57.825Z</time></trkpt><trkpt lat="43.9003674" lon="12.9372265"><ele>0.0</ele><time>2026-04-14T17:03:00.821Z</time></trkpt><trkpt lat="43.9003136" lon="12.9373002"><ele>0.0</ele><time>2026-04-14T17:03:03.815Z</time></trkpt><trkpt lat="43.9002759" lon="12.9373734"><ele>0.0</ele><time>2026-04-14T17:03:06.823Z</time></trkpt><trkpt lat="43.9002216" lon="12.9374315"><ele>0.0</ele><time>2026-04-14T17:03:10.823Z</time></trkpt><trkpt lat="43.9001774" lon="12.9375126"><ele>0.0</ele><time>2026-04-14T17:03:13.839Z</time></trkpt><trkpt lat="43.900123" lon="12.937588"><ele>0.0</ele><time>2026-04-14T17:03:16.815Z</time></trkpt><trkpt lat="43.900053" lon="12.9376777"><ele>0.0</ele><time>2026-04-14T17:03:19.823Z</time></trkpt><trkpt lat="43.8999919" lon="12.9377578"><ele>0.0</ele><time>2026-04-14T17:03:22.824Z</time></trkpt><trkpt lat="43.8999517" lon="12.9378513"><ele>0.0</ele><time>2026-04-14T17:03:25.829Z</time></trkpt><trkpt lat="43.8999083" lon="12.9379238"><ele>0.0</ele><time>2026-04-14T17:03:28.831Z</time></trkpt><trkpt lat="43.8998556" lon="12.9380044"><ele>0.0</ele><time>2026-04-14T17:03:31.827Z</time></trkpt><trkpt lat="43.8997936" lon="12.9380814"><ele>0.0</ele><time>2026-04-14T17:03:34.83Z</time></trkpt><trkpt lat="43.8997358" lon="12.9381597"><ele>0.0</ele><time>2026-04-14T17:03:37.818Z</time></trkpt><trkpt lat="43.8996836" lon="12.9382353"><ele>0.0</ele><time>2026-04-14T17:03:40.823Z</time></trkpt><trkpt lat="43.8996349" lon="12.938305"><ele>0.0</ele><time>2026-04-14T17:03:43.829Z</time></trkpt><trkpt lat="43.899576" lon="12.9384019"><ele>0.0</ele><time>2026-04-14T17:03:46.812Z</time></trkpt><trkpt lat="43.8995145" lon="12.9384915"><ele>0.0</ele><time>2026-04-14T17:03:49.845Z</time></trkpt><trkpt lat="43.8994642" lon="12.938571"><ele>0.0</ele><time>2026-04-14T17:03:52.824Z</time></trkpt><trkpt lat="43.8994164" lon="12.9386355"><ele>0.0</ele><time>2026-04-14T17:03:55.809Z</time></trkpt><trkpt lat="43.8993715" lon="12.9387133"><ele>0.0</ele><time>2026-04-14T17:03:58.82Z</time></trkpt><trkpt lat="43.8993074" lon="12.9387988"><ele>0.0</ele><time>2026-04-14T17:04:01.816Z</time></trkpt><trkpt lat="43.8992498" lon="12.938892"><ele>0.0</ele><time>2026-04-14T17:04:04.826Z</time></trkpt><trkpt lat="43.8992037" lon="12.9389914"><ele>0.0</ele><time>2026-04-14T17:04:07.808Z</time></trkpt><trkpt lat="43.8991364" lon="12.9390834"><ele>0.0</ele><time>2026-04-14T17:04:10.827Z</time></trkpt><trkpt lat="43.8990847" lon="12.9391494"><ele>0.0</ele><time>2026-04-14T17:04:13.834Z</time></trkpt><trkpt lat="43.8990412" lon="12.9392411"><ele>0.0</ele><time>2026-04-14T17:04:16.818Z</time></trkpt><trkpt lat="43.8989893" lon="12.9393097"><ele>0.0</ele><time>2026-04-14T17:04:19.822Z</time></trkpt><trkpt lat="43.8989211" lon="12.9393776"><ele>0.0</ele><time>2026-04-14T17:04:22.824Z</time></trkpt><trkpt lat="43.8988679" lon="12.9394551"><ele>0.0</ele><time>2026-04-14T17:04:25.811Z</time></trkpt><trkpt lat="43.898809" lon="12.9395474"><ele>0.0</ele><time>2026-04-14T17:04:28.807Z</time></trkpt><trkpt lat="43.8987535" lon="12.9396288"><ele>0.0</ele><time>2026-04-14T17:04:31.818Z</time></trkpt><trkpt lat="43.8987094" lon="12.9397129"><ele>0.0</ele><time>2026-04-14T17:04:35.815Z</time></trkpt><trkpt lat="43.8986623" lon="12.9397848"><ele>0.0</ele><time>2026-04-14T17:04:38.823Z</time></trkpt><trkpt lat="43.8985965" lon="12.9398356"><ele>0.0</ele><time>2026-04-14T17:04:42.825Z</time></trkpt><trkpt lat="43.898526" lon="12.939905"><ele>0.0</ele><time>2026-04-14T17:04:45.826Z</time></trkpt><trkpt lat="43.8984527" lon="12.9399701"><ele>0.0</ele><time>2026-04-14T17:04:48.823Z</time></trkpt><trkpt lat="43.898377" lon="12.94004"><ele>0.0</ele><time>2026-04-14T17:04:51.835Z</time></trkpt><trkpt lat="43.898316" lon="12.9401087"><ele>0.0</ele><time>2026-04-14T17:04:54.827Z</time></trkpt><trkpt lat="43.898275" lon="12.9402147"><ele>0.0</ele><time>2026-04-14T17:04:58.83Z</time></trkpt><trkpt lat="43.8982197" lon="12.9402934"><ele>0.0</ele><time>2026-04-14T17:05:01.822Z</time></trkpt><trkpt lat="43.898171" lon="12.9403532"><ele>0.0</ele><time>2026-04-14T17:05:04.831Z</time></trkpt><trkpt lat="43.8981207" lon="12.9404213"><ele>0.0</ele><time>2026-04-14T17:05:07.825Z</time></trkpt><trkpt lat="43.8980556" lon="12.9404947"><ele>0.0</ele><time>2026-04-14T17:05:10.819Z</time></trkpt><trkpt lat="43.8979966" lon="12.9405727"><ele>0.0</ele><time>2026-04-14T17:05:13.839Z</time></trkpt><trkpt lat="43.8979364" lon="12.9406416"><ele>0.0</ele><time>2026-04-14T17:05:16.827Z</time></trkpt><trkpt lat="43.8978694" lon="12.940722"><ele>0.0</ele><time>2026-04-14T17:05:19.83Z</time></trkpt><trkpt lat="43.8978055" lon="12.940799"><ele>0.0</ele><time>2026-04-14T17:05:22.845Z</time></trkpt><trkpt lat="43.8977474" lon="12.9408648"><ele>0.0</ele><time>2026-04-14T17:05:25.822Z</time></trkpt><trkpt lat="43.8976953" lon="12.9409291"><ele>0.0</ele><time>2026-04-14T17:05:28.83Z</time></trkpt><trkpt lat="43.8976445" lon="12.9410002"><ele>0.0</ele><time>2026-04-14T17:05:31.812Z</time></trkpt><trkpt lat="43.8975757" lon="12.9410698"><ele>0.16666666666666666</ele><time>2026-04-14T17:05:34.823Z</time></trkpt><trkpt lat="43.8975084" lon="12.9411415"><ele>0.3333333333333333</ele><time>2026-04-14T17:05:37.826Z</time></trkpt><trkpt lat="43.8974591" lon="12.9411994"><ele>0.5</ele><time>2026-04-14T17:05:40.826Z</time></trkpt><trkpt lat="43.897406" lon="12.941272"><ele>0.6666666666666666</ele><time>2026-04-14T17:05:43.842Z</time></trkpt><trkpt lat="43.8973475" lon="12.9413471"><ele>0.8333333333333333</ele><time>2026-04-14T17:05:46.818Z</time></trkpt><trkpt lat="43.8972759" lon="12.9414335"><ele>1.0</ele><time>2026-04-14T17:05:49.814Z</time></trkpt><trkpt lat="43.8972292" lon="12.9414941"><ele>0.9999999999999999</ele><time>2026-04-14T17:05:51.827Z</time></trkpt><trkpt lat="43.8971851" lon="12.9415638"><ele>1.0</ele><time>2026-04-14T17:05:54.819Z</time></trkpt><trkpt lat="43.8971227" lon="12.9416484"><ele>1.0</ele><time>2026-04-14T17:05:58.822Z</time></trkpt><trkpt lat="43.8970631" lon="12.9417316"><ele>1.0</ele><time>2026-04-14T17:06:01.82Z</time></trkpt><trkpt lat="43.8969836" lon="12.9418324"><ele>0.9999999999999999</ele><time>2026-04-14T17:06:05.81Z</time></trkpt><trkpt lat="43.8969412" lon="12.9419001"><ele>1.0</ele><time>2026-04-14T17:06:07.782Z</time></trkpt><trkpt lat="43.8969073" lon="12.9419746"><ele>1.0</ele><time>2026-04-14T17:06:09.781Z</time></trkpt><trkpt lat="43.8968912" lon="12.9420659"><ele>0.9999999999999999</ele><time>2026-04-14T17:06:12.805Z</time></trkpt><trkpt lat="43.8968282" lon="12.9421068"><ele>1.0</ele><time>2026-04-14T17:06:15.814Z</time></trkpt><trkpt lat="43.8967653" lon="12.9421502"><ele>1.0</ele><time>2026-04-14T17:06:18.818Z</time></trkpt><trkpt lat="43.8966954" lon="12.9421954"><ele>0.9999999999999999</ele><time>2026-04-14T17:06:21.806Z</time></trkpt><trkpt lat="43.8966315" lon="12.9422212"><ele>1.0</ele><time>2026-04-14T17:06:23.803Z</time></trkpt><trkpt lat="43.8965735" lon="12.9422936"><ele>1.0</ele><time>2026-04-14T17:06:26.808Z</time></trkpt><trkpt lat="43.8965177" lon="12.9423771"><ele>0.9999999999999999</ele><time>2026-04-14T17:06:29.817Z</time></trkpt><trkpt lat="43.8964731" lon="12.9424638"><ele>1.0</ele><time>2026-04-14T17:06:31.808Z</time></trkpt><trkpt lat="43.8963934" lon="12.9425133"><ele>1.0</ele><time>2026-04-14T17:06:34.819Z</time></trkpt><trkpt lat="43.8963169" lon="12.9424947"><ele>1.0</ele><time>2026-04-14T17:06:37.795Z</time></trkpt><trkpt lat="43.8962314" lon="12.9424927"><ele>0.9999999999999999</ele><time>2026-04-14T17:06:39.802Z</time></trkpt><trkpt lat="43.8961956" lon="12.9426021"><ele>1.0</ele><time>2026-04-14T17:06:42.797Z</time></trkpt><trkpt lat="43.8962083" lon="12.9427363"><ele>0.9999999999999999</ele><time>2026-04-14T17:06:44.807Z</time></trkpt><trkpt lat="43.8961597" lon="12.9428242"><ele>1.0</ele><time>2026-04-14T17:06:47.806Z</time></trkpt><trkpt lat="43.8961004" lon="12.9428905"><ele>1.0</ele><time>2026-04-14T17:06:50.814Z</time></trkpt><trkpt lat="43.8960377" lon="12.9429588"><ele>1.0</ele><time>2026-04-14T17:06:53.813Z</time></trkpt><trkpt lat="43.8959843" lon="12.9430333"><ele>0.9999999999999999</ele><time>2026-04-14T17:06:55.834Z</time></trkpt><trkpt lat="43.8959269" lon="12.943095"><ele>1.0</ele><time>2026-04-14T17:06:58.806Z</time></trkpt><trkpt lat="43.8958657" lon="12.9431952"><ele>0.9999999999999999</ele><time>2026-04-14T17:07:01.819Z</time></trkpt><trkpt lat="43.8958265" lon="12.9432824"><ele>1.0</ele><time>2026-04-14T17:07:04.82Z</time></trkpt><trkpt lat="43.8957606" lon="12.9433298"><ele>1.0</ele><time>2026-04-14T17:07:08.824Z</time></trkpt><trkpt lat="43.8957093" lon="12.9434033"><ele>1.0</ele><time>2026-04-14T17:07:11.829Z</time></trkpt><trkpt lat="43.8956542" lon="12.9434692"><ele>0.9999999999999999</ele><time>2026-04-14T17:07:14.836Z</time></trkpt><trkpt lat="43.895582" lon="12.9435471"><ele>1.0</ele><time>2026-04-14T17:07:17.814Z</time></trkpt><trkpt lat="43.895506" lon="12.9436097"><ele>0.8333333333333333</ele><time>2026-04-14T17:07:20.819Z</time></trkpt><trkpt lat="43.8954316" lon="12.9436824"><ele>0.6666666666666666</ele><time>2026-04-14T17:07:23.818Z</time></trkpt><trkpt lat="43.8954187" lon="12.9437931"><ele>0.5</ele><time>2026-04-14T17:07:26.817Z</time></trkpt><trkpt lat="43.8953714" lon="12.9438716"><ele>0.3333333333333333</ele><time>2026-04-14T17:07:29.81Z</time></trkpt><trkpt lat="43.8953178" lon="12.9439394"><ele>0.16666666666666666</ele><time>2026-04-14T17:07:32.818Z</time></trkpt><trkpt lat="43.8952472" lon="12.9439975"><ele>0.0</ele><time>2026-04-14T17:07:35.813Z</time></trkpt><trkpt lat="43.8951839" lon="12.9440618"><ele>0.0</ele><time>2026-04-14T17:07:38.811Z</time></trkpt><trkpt lat="43.8951147" lon="12.9441417"><ele>0.0</ele><time>2026-04-14T17:07:41.813Z</time></trkpt><trkpt lat="43.895065" lon="12.9442236"><ele>0.0</ele><time>2026-04-14T17:07:44.818Z</time></trkpt><trkpt lat="43.8950225" lon="12.9442941"><ele>0.0</ele><time>2026-04-14T17:07:47.822Z</time></trkpt><trkpt lat="43.8949598" lon="12.9443564"><ele>0.0</ele><time>2026-04-14T17:07:50.821Z</time></trkpt><trkpt lat="43.8948995" lon="12.9444286"><ele>0.0</ele><time>2026-04-14T17:07:53.819Z</time></trkpt><trkpt lat="43.8948443" lon="12.9444994"><ele>0.0</ele><time>2026-04-14T17:07:56.832Z</time></trkpt><trkpt lat="43.894777" lon="12.9445544"><ele>0.0</ele><time>2026-04-14T17:07:59.815Z</time></trkpt><trkpt lat="43.8947203" lon="12.9446133"><ele>0.0</ele><time>2026-04-14T17:08:02.823Z</time></trkpt><trkpt lat="43.8946603" lon="12.9446683"><ele>0.0</ele><time>2026-04-14T17:08:05.807Z</time></trkpt><trkpt lat="43.8946106" lon="12.9447282"><ele>0.0</ele><time>2026-04-14T17:08:08.801Z</time></trkpt><trkpt lat="43.8945673" lon="12.9448312"><ele>0.0</ele><time>2026-04-14T17:08:12.807Z</time></trkpt><trkpt lat="43.8945262" lon="12.9448978"><ele>0.0</ele><time>2026-04-14T17:08:14.812Z</time></trkpt><trkpt lat="43.8944685" lon="12.9449712"><ele>0.0</ele><time>2026-04-14T17:08:17.815Z</time></trkpt><trkpt lat="43.8944085" lon="12.9450398"><ele>0.0</ele><time>2026-04-14T17:08:20.815Z</time></trkpt><trkpt lat="43.8943502" lon="12.9451066"><ele>0.0</ele><time>2026-04-14T17:08:23.824Z</time></trkpt><trkpt lat="43.8942992" lon="12.9451718"><ele>0.0</ele><time>2026-04-14T17:08:26.832Z</time></trkpt><trkpt lat="43.8942569" lon="12.9452403"><ele>0.0</ele><time>2026-04-14T17:08:29.816Z</time></trkpt><trkpt lat="43.8941943" lon="12.9453149"><ele>0.0</ele><time>2026-04-14T17:08:32.82Z</time></trkpt><trkpt lat="43.8941336" lon="12.9454031"><ele>0.0</ele><time>2026-04-14T17:08:35.82Z</time></trkpt><trkpt lat="43.8940735" lon="12.9454863"><ele>0.0</ele><time>2026-04-14T17:08:38.814Z</time></trkpt><trkpt lat="43.894018" lon="12.9455595"><ele>0.0</ele><time>2026-04-14T17:08:41.814Z</time></trkpt><trkpt lat="43.8939528" lon="12.9456204"><ele>0.0</ele><time>2026-04-14T17:08:44.819Z</time></trkpt><trkpt lat="43.8938948" lon="12.9456881"><ele>0.0</ele><time>2026-04-14T17:08:47.822Z</time></trkpt><trkpt lat="43.8938293" lon="12.945761"><ele>0.0</ele><time>2026-04-14T17:08:50.818Z</time></trkpt><trkpt lat="43.8937527" lon="12.9458291"><ele>0.0</ele><time>2026-04-14T17:08:53.826Z</time></trkpt><trkpt lat="43.8936962" lon="12.9458692"><ele>0.0</ele><time>2026-04-14T17:08:55.823Z</time></trkpt><trkpt lat="43.8936294" lon="12.9459273"><ele>0.0</ele><time>2026-04-14T17:08:58.812Z</time></trkpt><trkpt lat="43.8935848" lon="12.9460075"><ele>0.0</ele><time>2026-04-14T17:09:00.81Z</time></trkpt><trkpt lat="43.8935653" lon="12.9461047"><ele>0.0</ele><time>2026-04-14T17:09:04.814Z</time></trkpt><trkpt lat="43.8935079" lon="12.946156"><ele>0.0</ele><time>2026-04-14T17:09:07.813Z</time></trkpt><trkpt lat="43.8934462" lon="12.9462214"><ele>0.0</ele><time>2026-04-14T17:09:10.819Z</time></trkpt><trkpt lat="43.8933954" lon="12.9462744"><ele>0.0</ele><time>2026-04-14T17:09:12.819Z</time></trkpt><trkpt lat="43.8933268" lon="12.9463638"><ele>0.0</ele><time>2026-04-14T17:09:15.813Z</time></trkpt><trkpt lat="43.8932596" lon="12.9464378"><ele>0.0</ele><time>2026-04-14T17:09:18.813Z</time></trkpt><trkpt lat="43.8931711" lon="12.9465083"><ele>0.0</ele><time>2026-04-14T17:09:21.813Z</time></trkpt><trkpt lat="43.8931089" lon="12.9465527"><ele>0.0</ele><time>2026-04-14T17:09:23.811Z</time></trkpt><trkpt lat="43.893052" lon="12.9466087"><ele>0.0</ele><time>2026-04-14T17:09:25.819Z</time></trkpt><trkpt lat="43.8930001" lon="12.9466652"><ele>0.0</ele><time>2026-04-14T17:09:27.835Z</time></trkpt><trkpt lat="43.8929599" lon="12.9467547"><ele>0.0</ele><time>2026-04-14T17:09:31.817Z</time></trkpt><trkpt lat="43.8929116" lon="12.9468284"><ele>0.0</ele><time>2026-04-14T17:09:34.816Z</time></trkpt><trkpt lat="43.8928642" lon="12.9469018"><ele>0.0</ele><time>2026-04-14T17:09:37.816Z</time></trkpt><trkpt lat="43.8928178" lon="12.9469804"><ele>0.0</ele><time>2026-04-14T17:09:40.815Z</time></trkpt><trkpt lat="43.8927573" lon="12.9470485"><ele>0.0</ele><time>2026-04-14T17:09:43.819Z</time></trkpt><trkpt lat="43.8927036" lon="12.947115"><ele>0.0</ele><time>2026-04-14T17:09:46.821Z</time></trkpt><trkpt lat="43.8926436" lon="12.9471929"><ele>0.0</ele><time>2026-04-14T17:09:49.815Z</time></trkpt><trkpt lat="43.8925837" lon="12.947271"><ele>0.0</ele><time>2026-04-14T17:09:52.819Z</time></trkpt><trkpt lat="43.8925199" lon="12.9473439"><ele>0.0</ele><time>2026-04-14T17:09:55.817Z</time></trkpt><trkpt lat="43.8924641" lon="12.947425"><ele>0.0</ele><time>2026-04-14T17:09:58.843Z</time></trkpt><trkpt lat="43.8924039" lon="12.9474985"><ele>0.0</ele><time>2026-04-14T17:10:01.821Z</time></trkpt><trkpt lat="43.8923362" lon="12.9475663"><ele>0.0</ele><time>2026-04-14T17:10:04.809Z</time></trkpt><trkpt lat="43.8922806" lon="12.9476083"><ele>0.0</ele><time>2026-04-14T17:10:06.818Z</time></trkpt><trkpt lat="43.8922044" lon="12.9476779"><ele>0.0</ele><time>2026-04-14T17:10:09.823Z</time></trkpt><trkpt lat="43.892141" lon="12.9477353"><ele>0.0</ele><time>2026-04-14T17:10:12.816Z</time></trkpt><trkpt lat="43.8920961" lon="12.9478028"><ele>0.0</ele><time>2026-04-14T17:10:15.828Z</time></trkpt><trkpt lat="43.8920543" lon="12.9478732"><ele>0.0</ele><time>2026-04-14T17:10:18.839Z</time></trkpt><trkpt lat="43.8920069" lon="12.9479535"><ele>0.0</ele><time>2026-04-14T17:10:21.819Z</time></trkpt><trkpt lat="43.8919612" lon="12.9480432"><ele>0.0</ele><time>2026-04-14T17:10:24.824Z</time></trkpt><trkpt lat="43.8918957" lon="12.9480992"><ele>0.0</ele><time>2026-04-14T17:10:27.823Z</time></trkpt><trkpt lat="43.8918318" lon="12.948157"><ele>0.0</ele><time>2026-04-14T17:10:30.824Z</time></trkpt><trkpt lat="43.8917645" lon="12.9482128"><ele>0.0</ele><time>2026-04-14T17:10:33.825Z</time></trkpt><trkpt lat="43.8916978" lon="12.9482777"><ele>0.0</ele><time>2026-04-14T17:10:36.815Z</time></trkpt><trkpt lat="43.8916509" lon="12.9483637"><ele>0.0</ele><time>2026-04-14T17:10:39.823Z</time></trkpt><trkpt lat="43.8916033" lon="12.9484517"><ele>0.0</ele><time>2026-04-14T17:10:42.821Z</time></trkpt><trkpt lat="43.8915607" lon="12.9485568"><ele>0.0</ele><time>2026-04-14T17:10:45.809Z</time></trkpt><trkpt lat="43.8915139" lon="12.9486364"><ele>0.0</ele><time>2026-04-14T17:10:48.818Z</time></trkpt><trkpt lat="43.8914353" lon="12.9485997"><ele>0.0</ele><time>2026-04-14T17:10:52.791Z</time></trkpt><trkpt lat="43.8914193" lon="12.9484755"><ele>0.0</ele><time>2026-04-14T17:10:53.796Z</time></trkpt><trkpt lat="43.8913955" lon="12.9485636"><ele>0.0</ele><time>2026-04-14T17:10:57.808Z</time></trkpt><trkpt lat="43.8913562" lon="12.9486624"><ele>0.0</ele><time>2026-04-14T17:10:59.821Z</time></trkpt><trkpt lat="43.8913016" lon="12.9487485"><ele>0.0</ele><time>2026-04-14T17:11:01.809Z</time></trkpt><trkpt lat="43.8912489" lon="12.9488293"><ele>0.0</ele><time>2026-04-14T17:11:03.812Z</time></trkpt><trkpt lat="43.8912011" lon="12.9488968"><ele>0.0</ele><time>2026-04-14T17:11:05.814Z</time></trkpt><trkpt lat="43.8911576" lon="12.9489605"><ele>0.0</ele><time>2026-04-14T17:11:07.816Z</time></trkpt><trkpt lat="43.8910949" lon="12.9490351"><ele>0.0</ele><time>2026-04-14T17:11:10.808Z</time></trkpt><trkpt lat="43.8910337" lon="12.9491228"><ele>0.0</ele><time>2026-04-14T17:11:13.806Z</time></trkpt><trkpt lat="43.890979" lon="12.9492074"><ele>0.0</ele><time>2026-04-14T17:11:16.815Z</time></trkpt><trkpt lat="43.8909221" lon="12.9492785"><ele>0.0</ele><time>2026-04-14T17:11:19.821Z</time></trkpt><trkpt lat="43.8908659" lon="12.9493369"><ele>0.0</ele><time>2026-04-14T17:11:22.823Z</time></trkpt><trkpt lat="43.8908031" lon="12.9494009"><ele>0.0</ele><time>2026-04-14T17:11:25.813Z</time></trkpt><trkpt lat="43.8907445" lon="12.9494643"><ele>0.0</ele><time>2026-04-14T17:11:28.823Z</time></trkpt><trkpt lat="43.8906857" lon="12.9495279"><ele>0.0</ele><time>2026-04-14T17:11:31.814Z</time></trkpt><trkpt lat="43.8906272" lon="12.9495881"><ele>0.0</ele><time>2026-04-14T17:11:34.818Z</time></trkpt><trkpt lat="43.890574" lon="12.9496567"><ele>0.0</ele><time>2026-04-14T17:11:37.814Z</time></trkpt><trkpt lat="43.8905195" lon="12.9497355"><ele>0.0</ele><time>2026-04-14T17:11:40.812Z</time></trkpt><trkpt lat="43.8904742" lon="12.9498168"><ele>0.0</ele><time>2026-04-14T17:11:43.827Z</time></trkpt><trkpt lat="43.8904221" lon="12.9498832"><ele>0.0</ele><time>2026-04-14T17:11:46.82Z</time></trkpt><trkpt lat="43.8903601" lon="12.9499524"><ele>0.0</ele><time>2026-04-14T17:11:50.814Z</time></trkpt><trkpt lat="43.8903062" lon="12.9500309"><ele>0.0</ele><time>2026-04-14T17:11:53.817Z</time></trkpt><trkpt lat="43.8902435" lon="12.9501028"><ele>0.0</ele><time>2026-04-14T17:11:56.816Z</time></trkpt><trkpt lat="43.8901941" lon="12.9501721"><ele>0.0</ele><time>2026-04-14T17:11:59.811Z</time></trkpt><trkpt lat="43.890274" lon="12.9501305"><ele>0.0</ele><time>2026-04-14T17:12:03.816Z</time></trkpt><trkpt lat="43.8903178" lon="12.9500657"><ele>0.0</ele><time>2026-04-14T17:12:05.817Z</time></trkpt><trkpt lat="43.8903789" lon="12.9499756"><ele>0.0</ele><time>2026-04-14T17:12:08.818Z</time></trkpt><trkpt lat="43.8904445" lon="12.949895"><ele>0.0</ele><time>2026-04-14T17:12:11.812Z</time></trkpt><trkpt lat="43.8905153" lon="12.9498265"><ele>0.0</ele><time>2026-04-14T17:12:14.809Z</time></trkpt><trkpt lat="43.8905819" lon="12.9497525"><ele>0.0</ele><time>2026-04-14T17:12:17.815Z</time></trkpt><trkpt lat="43.8906405" lon="12.9496862"><ele>0.0</ele><time>2026-04-14T17:12:20.816Z</time></trkpt><trkpt lat="43.8906916" lon="12.9496256"><ele>0.0</ele><time>2026-04-14T17:12:23.814Z</time></trkpt><trkpt lat="43.8907493" lon="12.9495284"><ele>0.0</ele><time>2026-04-14T17:12:28.809Z</time></trkpt><trkpt lat="43.8907958" lon="12.9494599"><ele>0.0</ele><time>2026-04-14T17:12:30.807Z</time></trkpt><trkpt lat="43.8908605" lon="12.9493552"><ele>0.0</ele><time>2026-04-14T17:12:33.813Z</time></trkpt><trkpt lat="43.8909353" lon="12.9492751"><ele>0.0</ele><time>2026-04-14T17:12:36.814Z</time></trkpt><trkpt lat="43.8909982" lon="12.9492146"><ele>0.0</ele><time>2026-04-14T17:12:39.807Z</time></trkpt><trkpt lat="43.8910551" lon="12.9491345"><ele>0.0</ele><time>2026-04-14T17:12:42.803Z</time></trkpt><trkpt lat="43.8911159" lon="12.949057"><ele>0.0</ele><time>2026-04-14T17:12:45.804Z</time></trkpt><trkpt lat="43.8911829" lon="12.9489855"><ele>0.0</ele><time>2026-04-14T17:12:48.816Z</time></trkpt><trkpt lat="43.8912654" lon="12.9489277"><ele>0.0</ele><time>2026-04-14T17:12:51.807Z</time></trkpt><trkpt lat="43.8913211" lon="12.9488758"><ele>0.0</ele><time>2026-04-14T17:12:53.804Z</time></trkpt><trkpt lat="43.8913857" lon="12.9488147"><ele>0.0</ele><time>2026-04-14T17:12:56.811Z</time></trkpt><trkpt lat="43.8914381" lon="12.948759"><ele>0.0</ele><time>2026-04-14T17:12:58.817Z</time></trkpt><trkpt lat="43.8915068" lon="12.9486835"><ele>0.0</ele><time>2026-04-14T17:13:01.814Z</time></trkpt><trkpt lat="43.8915704" lon="12.9486123"><ele>0.0</ele><time>2026-04-14T17:13:04.803Z</time></trkpt><trkpt lat="43.8916393" lon="12.9485361"><ele>0.0</ele><time>2026-04-14T17:13:07.815Z</time></trkpt><trkpt lat="43.8917023" lon="12.9484677"><ele>0.0</ele><time>2026-04-14T17:13:10.819Z</time></trkpt><trkpt lat="43.8917414" lon="12.9483986"><ele>0.0</ele><time>2026-04-14T17:13:13.815Z</time></trkpt><trkpt lat="43.8917485" lon="12.94831"><ele>0.0</ele><time>2026-04-14T17:13:17.828Z</time></trkpt><trkpt lat="43.8918075" lon="12.9482353"><ele>0.0</ele><time>2026-04-14T17:13:20.818Z</time></trkpt><trkpt lat="43.8918669" lon="12.9481743"><ele>0.0</ele><time>2026-04-14T17:13:23.818Z</time></trkpt><trkpt lat="43.8919269" lon="12.9481023"><ele>0.0</ele><time>2026-04-14T17:13:26.822Z</time></trkpt><trkpt lat="43.8919889" lon="12.9480612"><ele>0.0</ele><time>2026-04-14T17:13:28.825Z</time></trkpt><trkpt lat="43.8920656" lon="12.9480101"><ele>0.0</ele><time>2026-04-14T17:13:31.806Z</time></trkpt><trkpt lat="43.8921352" lon="12.9479455"><ele>0.0</ele><time>2026-04-14T17:13:34.828Z</time></trkpt><trkpt lat="43.8921915" lon="12.9478771"><ele>0.0</ele><time>2026-04-14T17:13:37.821Z</time></trkpt><trkpt lat="43.8922289" lon="12.9477951"><ele>0.0</ele><time>2026-04-14T17:13:41.827Z</time></trkpt><trkpt lat="43.8922821" lon="12.9477291"><ele>0.0</ele><time>2026-04-14T17:13:44.825Z</time></trkpt><trkpt lat="43.8923409" lon="12.9476547"><ele>0.0</ele><time>2026-04-14T17:13:47.817Z</time></trkpt><trkpt lat="43.8924249" lon="12.9475897"><ele>0.0</ele><time>2026-04-14T17:13:50.82Z</time></trkpt><trkpt lat="43.8924779" lon="12.9475387"><ele>0.0</ele><time>2026-04-14T17:13:52.808Z</time></trkpt><trkpt lat="43.8925161" lon="12.9474644"><ele>0.0</ele><time>2026-04-14T17:13:55.821Z</time></trkpt><trkpt lat="43.89256" lon="12.9473934"><ele>0.0</ele><time>2026-04-14T17:13:58.822Z</time></trkpt><trkpt lat="43.8926093" lon="12.947312"><ele>0.0</ele><time>2026-04-14T17:14:01.828Z</time></trkpt><trkpt lat="43.8926782" lon="12.9472377"><ele>0.0</ele><time>2026-04-14T17:14:04.822Z</time></trkpt><trkpt lat="43.8927334" lon="12.9471934"><ele>0.0</ele><time>2026-04-14T17:14:06.811Z</time></trkpt><trkpt lat="43.8927963" lon="12.9471474"><ele>0.0</ele><time>2026-04-14T17:14:08.817Z</time></trkpt><trkpt lat="43.8928605" lon="12.9470778"><ele>0.0</ele><time>2026-04-14T17:14:11.825Z</time></trkpt><trkpt lat="43.8929205" lon="12.9469972"><ele>0.0</ele><time>2026-04-14T17:14:14.817Z</time></trkpt><trkpt lat="43.8929894" lon="12.9469198"><ele>0.0</ele><time>2026-04-14T17:14:17.821Z</time></trkpt><trkpt lat="43.8930529" lon="12.9468514"><ele>0.0</ele><time>2026-04-14T17:14:20.823Z</time></trkpt><trkpt lat="43.89309" lon="12.9467743"><ele>0.0</ele><time>2026-04-14T17:14:23.832Z</time></trkpt><trkpt lat="43.8931341" lon="12.9466943"><ele>0.0</ele><time>2026-04-14T17:14:26.827Z</time></trkpt><trkpt lat="43.8931975" lon="12.9466155"><ele>0.0</ele><time>2026-04-14T17:14:29.827Z</time></trkpt><trkpt lat="43.8932423" lon="12.9465528"><ele>0.0</ele><time>2026-04-14T17:14:31.822Z</time></trkpt><trkpt lat="43.8933128" lon="12.9464843"><ele>0.0</ele><time>2026-04-14T17:14:34.828Z</time></trkpt><trkpt lat="43.8933652" lon="12.9464352"><ele>0.0</ele><time>2026-04-14T17:14:36.866Z</time></trkpt><trkpt lat="43.8934113" lon="12.9463701"><ele>0.0</ele><time>2026-04-14T17:14:38.822Z</time></trkpt><trkpt lat="43.8934599" lon="12.9463058"><ele>0.0</ele><time>2026-04-14T17:14:40.821Z</time></trkpt><trkpt lat="43.8935291" lon="12.9462295"><ele>0.0</ele><time>2026-04-14T17:14:43.824Z</time></trkpt><trkpt lat="43.8935871" lon="12.9461839"><ele>0.0</ele><time>2026-04-14T17:14:46.83Z</time></trkpt><trkpt lat="43.8936549" lon="12.9461151"><ele>0.0</ele><time>2026-04-14T17:14:50.828Z</time></trkpt><trkpt lat="43.8937327" lon="12.9460469"><ele>0.0</ele><time>2026-04-14T17:14:53.823Z</time></trkpt><trkpt lat="43.8937786" lon="12.9459817"><ele>0.0</ele><time>2026-04-14T17:14:55.819Z</time></trkpt><trkpt lat="43.8938234" lon="12.9459193"><ele>0.0</ele><time>2026-04-14T17:14:57.828Z</time></trkpt><trkpt lat="43.8938643" lon="12.9458363"><ele>0.0</ele><time>2026-04-14T17:15:00.806Z</time></trkpt><trkpt lat="43.8938973" lon="12.9457548"><ele>0.0</ele><time>2026-04-14T17:15:03.809Z</time></trkpt><trkpt lat="43.8939358" lon="12.9456773"><ele>0.0</ele><time>2026-04-14T17:15:06.832Z</time></trkpt><trkpt lat="43.8939931" lon="12.9456055"><ele>0.0</ele><time>2026-04-14T17:15:09.808Z</time></trkpt><trkpt lat="43.8940672" lon="12.9455398"><ele>0.0</ele><time>2026-04-14T17:15:12.807Z</time></trkpt><trkpt lat="43.8941363" lon="12.9454609"><ele>0.0</ele><time>2026-04-14T17:15:15.815Z</time></trkpt><trkpt lat="43.8942007" lon="12.9453759"><ele>0.0</ele><time>2026-04-14T17:15:18.817Z</time></trkpt><trkpt lat="43.8942488" lon="12.945293"><ele>0.0</ele><time>2026-04-14T17:15:21.806Z</time></trkpt><trkpt lat="43.8943112" lon="12.9452113"><ele>0.0</ele><time>2026-04-14T17:15:24.807Z</time></trkpt><trkpt lat="43.8943755" lon="12.945132"><ele>0.0</ele><time>2026-04-14T17:15:27.809Z</time></trkpt><trkpt lat="43.8944324" lon="12.9450504"><ele>0.0</ele><time>2026-04-14T17:15:30.8Z</time></trkpt><trkpt lat="43.8944956" lon="12.9449684"><ele>0.0</ele><time>2026-04-14T17:15:33.803Z</time></trkpt><trkpt lat="43.8945566" lon="12.9449038"><ele>0.0</ele><time>2026-04-14T17:15:36.802Z</time></trkpt><trkpt lat="43.8946208" lon="12.9448266"><ele>0.0</ele><time>2026-04-14T17:15:39.8Z</time></trkpt><trkpt lat="43.8946806" lon="12.944755"><ele>0.0</ele><time>2026-04-14T17:15:42.804Z</time></trkpt><trkpt lat="43.894745" lon="12.9446846"><ele>0.0</ele><time>2026-04-14T17:15:45.805Z</time></trkpt><trkpt lat="43.8948115" lon="12.9445959"><ele>0.0</ele><time>2026-04-14T17:15:48.818Z</time></trkpt><trkpt lat="43.8948732" lon="12.9445026"><ele>0.0</ele><time>2026-04-14T17:15:51.802Z</time></trkpt><trkpt lat="43.8949393" lon="12.9444313"><ele>0.0</ele><time>2026-04-14T17:15:54.803Z</time></trkpt><trkpt lat="43.8950081" lon="12.9443598"><ele>0.0</ele><time>2026-04-14T17:15:57.806Z</time></trkpt><trkpt lat="43.8950758" lon="12.9442862"><ele>0.0</ele><time>2026-04-14T17:16:00.811Z</time></trkpt><trkpt lat="43.895138" lon="12.9442094"><ele>0.0</ele><time>2026-04-14T17:16:03.808Z</time></trkpt><trkpt lat="43.8952025" lon="12.9441394"><ele>0.0</ele><time>2026-04-14T17:16:06.802Z</time></trkpt><trkpt lat="43.8952662" lon="12.9440661"><ele>0.0</ele><time>2026-04-14T17:16:09.802Z</time></trkpt><trkpt lat="43.8953184" lon="12.9439839"><ele>0.0</ele><time>2026-04-14T17:16:12.803Z</time></trkpt><trkpt lat="43.8953774" lon="12.9439045"><ele>0.0</ele><time>2026-04-14T17:16:15.806Z</time></trkpt><trkpt lat="43.8954389" lon="12.9438131"><ele>0.0</ele><time>2026-04-14T17:16:18.821Z</time></trkpt><trkpt lat="43.8954835" lon="12.943751"><ele>0.0</ele><time>2026-04-14T17:16:20.809Z</time></trkpt><trkpt lat="43.8955443" lon="12.9436743"><ele>0.0</ele><time>2026-04-14T17:16:23.806Z</time></trkpt><trkpt lat="43.8955977" lon="12.9436269"><ele>0.0</ele><time>2026-04-14T17:16:25.802Z</time></trkpt><trkpt lat="43.8956684" lon="12.943556"><ele>0.0</ele><time>2026-04-14T17:16:28.802Z</time></trkpt><trkpt lat="43.8957327" lon="12.9434832"><ele>0.0</ele><time>2026-04-14T17:16:31.807Z</time></trkpt><trkpt lat="43.8957948" lon="12.94342"><ele>0.0</ele><time>2026-04-14T17:16:34.81Z</time></trkpt><trkpt lat="43.8958504" lon="12.9433565"><ele>0.0</ele><time>2026-04-14T17:16:37.805Z</time></trkpt><trkpt lat="43.8959191" lon="12.9432768"><ele>0.0</ele><time>2026-04-14T17:16:40.802Z</time></trkpt><trkpt lat="43.895984" lon="12.9431934"><ele>0.0</ele><time>2026-04-14T17:16:43.794Z</time></trkpt><trkpt lat="43.8960502" lon="12.9431127"><ele>0.0</ele><time>2026-04-14T17:16:46.811Z</time></trkpt><trkpt lat="43.8961209" lon="12.9430432"><ele>0.0</ele><time>2026-04-14T17:16:49.796Z</time></trkpt><trkpt lat="43.8961844" lon="12.9429719"><ele>0.0</ele><time>2026-04-14T17:16:52.804Z</time></trkpt><trkpt lat="43.8962429" lon="12.942896"><ele>0.0</ele><time>2026-04-14T17:16:55.804Z</time></trkpt><trkpt lat="43.8962931" lon="12.9428053"><ele>0.0</ele><time>2026-04-14T17:16:58.812Z</time></trkpt><trkpt lat="43.8963627" lon="12.9427314"><ele>0.0</ele><time>2026-04-14T17:17:01.793Z</time></trkpt><trkpt lat="43.8964277" lon="12.9426594"><ele>0.0</ele><time>2026-04-14T17:17:04.804Z</time></trkpt><trkpt lat="43.8964878" lon="12.9425834"><ele>0.0</ele><time>2026-04-14T17:17:07.806Z</time></trkpt><trkpt lat="43.8965477" lon="12.9424963"><ele>0.0</ele><time>2026-04-14T17:17:10.826Z</time></trkpt><trkpt lat="43.8966054" lon="12.9424152"><ele>0.0</ele><time>2026-04-14T17:17:13.81Z</time></trkpt><trkpt lat="43.8966593" lon="12.942346"><ele>0.0</ele><time>2026-04-14T17:17:16.808Z</time></trkpt><trkpt lat="43.8967168" lon="12.9422743"><ele>0.0</ele><time>2026-04-14T17:17:19.807Z</time></trkpt><trkpt lat="43.8967817" lon="12.9422039"><ele>0.0</ele><time>2026-04-14T17:17:22.81Z</time></trkpt><trkpt lat="43.8968457" lon="12.9421188"><ele>0.0</ele><time>2026-04-14T17:17:25.797Z</time></trkpt><trkpt lat="43.8969152" lon="12.942039"><ele>0.0</ele><time>2026-04-14T17:17:28.802Z</time></trkpt><trkpt lat="43.8969786" lon="12.9419598"><ele>0.0</ele><time>2026-04-14T17:17:31.802Z</time></trkpt><trkpt lat="43.8970343" lon="12.9418792"><ele>0.0</ele><time>2026-04-14T17:17:35.816Z</time></trkpt><trkpt lat="43.8970938" lon="12.9418078"><ele>0.0</ele><time>2026-04-14T17:17:38.807Z</time></trkpt><trkpt lat="43.8971575" lon="12.9417347"><ele>0.0</ele><time>2026-04-14T17:17:41.826Z</time></trkpt><trkpt lat="43.8972167" lon="12.9416446"><ele>0.0</ele><time>2026-04-14T17:17:44.797Z</time></trkpt><trkpt lat="43.8972744" lon="12.9415657"><ele>0.0</ele><time>2026-04-14T17:17:47.804Z</time></trkpt><trkpt lat="43.8973379" lon="12.9414871"><ele>0.0</ele><time>2026-04-14T17:17:50.805Z</time></trkpt><trkpt lat="43.8974124" lon="12.94141"><ele>0.0</ele><time>2026-04-14T17:17:53.806Z</time></trkpt><trkpt lat="43.8974782" lon="12.9413331"><ele>0.0</ele><time>2026-04-14T17:17:56.814Z</time></trkpt><trkpt lat="43.8975393" lon="12.9412576"><ele>0.0</ele><time>2026-04-14T17:17:59.806Z</time></trkpt><trkpt lat="43.8976011" lon="12.9411773"><ele>0.0</ele><time>2026-04-14T17:18:02.815Z</time></trkpt><trkpt lat="43.8976611" lon="12.9411031"><ele>0.0</ele><time>2026-04-14T17:18:05.805Z</time></trkpt><trkpt lat="43.8977227" lon="12.9410271"><ele>0.0</ele><time>2026-04-14T17:18:08.807Z</time></trkpt><trkpt lat="43.897778" lon="12.9409442"><ele>0.0</ele><time>2026-04-14T17:18:11.805Z</time></trkpt><trkpt lat="43.8978341" lon="12.9408688"><ele>0.0</ele><time>2026-04-14T17:18:14.805Z</time></trkpt><trkpt lat="43.8979021" lon="12.9407932"><ele>0.0</ele><time>2026-04-14T17:18:17.81Z</time></trkpt><trkpt lat="43.897964" lon="12.940714"><ele>0.0</ele><time>2026-04-14T17:18:20.805Z</time></trkpt><trkpt lat="43.8980248" lon="12.9406408"><ele>0.0</ele><time>2026-04-14T17:18:23.804Z</time></trkpt><trkpt lat="43.8980925" lon="12.9405621"><ele>0.0</ele><time>2026-04-14T17:18:26.799Z</time></trkpt><trkpt lat="43.8981624" lon="12.9404908"><ele>0.0</ele><time>2026-04-14T17:18:29.805Z</time></trkpt><trkpt lat="43.8982275" lon="12.9404088"><ele>0.0</ele><time>2026-04-14T17:18:32.803Z</time></trkpt><trkpt lat="43.8982915" lon="12.9403316"><ele>0.0</ele><time>2026-04-14T17:18:35.784Z</time></trkpt><trkpt lat="43.8983636" lon="12.9402563"><ele>0.0</ele><time>2026-04-14T17:18:37.761Z</time></trkpt><trkpt lat="43.8984176" lon="12.9401772"><ele>0.0</ele><time>2026-04-14T17:18:39.764Z</time></trkpt><trkpt lat="43.8984689" lon="12.9401156"><ele>0.0</ele><time>2026-04-14T17:18:41.782Z</time></trkpt><trkpt lat="43.8985151" lon="12.9400378"><ele>0.0</ele><time>2026-04-14T17:18:45.799Z</time></trkpt><trkpt lat="43.8985593" lon="12.939951"><ele>0.0</ele><time>2026-04-14T17:18:49.799Z</time></trkpt><trkpt lat="43.898612" lon="12.9398826"><ele>0.0</ele><time>2026-04-14T17:18:52.797Z</time></trkpt><trkpt lat="43.8986723" lon="12.9398192"><ele>0.0</ele><time>2026-04-14T17:18:55.795Z</time></trkpt><trkpt lat="43.8987302" lon="12.9397505"><ele>0.0</ele><time>2026-04-14T17:18:58.794Z</time></trkpt><trkpt lat="43.8987837" lon="12.939691"><ele>0.0</ele><time>2026-04-14T17:19:01.794Z</time></trkpt><trkpt lat="43.8988477" lon="12.9396165"><ele>0.0</ele><time>2026-04-14T17:19:04.801Z</time></trkpt><trkpt lat="43.8989113" lon="12.9395359"><ele>0.0</ele><time>2026-04-14T17:19:07.794Z</time></trkpt><trkpt lat="43.8989747" lon="12.9394637"><ele>0.0</ele><time>2026-04-14T17:19:10.775Z</time></trkpt><trkpt lat="43.8990348" lon="12.9393888"><ele>0.0</ele><time>2026-04-14T17:19:13.775Z</time></trkpt><trkpt lat="43.8989011" lon="12.9393005"><ele>0.0</ele><time>2026-04-14T17:19:17.769Z</time></trkpt><trkpt lat="43.8988095" lon="12.9393004"><ele>0.0</ele><time>2026-04-14T17:19:18.781Z</time></trkpt><trkpt lat="43.898725" lon="12.9393493"><ele>0.0</ele><time>2026-04-14T17:19:20.768Z</time></trkpt><trkpt lat="43.8987898" lon="12.9392711"><ele>0.0</ele><time>2026-04-14T17:19:25.761Z</time></trkpt><trkpt lat="43.8989285" lon="12.9392188"><ele>0.0</ele><time>2026-04-14T17:19:27.77Z</time></trkpt><trkpt lat="43.899005" lon="12.9391689"><ele>0.0</ele><time>2026-04-14T17:19:28.774Z</time></trkpt><trkpt lat="43.8990709" lon="12.9391192"><ele>0.0</ele><time>2026-04-14T17:19:29.775Z</time></trkpt><trkpt lat="43.8991337" lon="12.9390534"><ele>0.0</ele><time>2026-04-14T17:19:30.779Z</time></trkpt><trkpt lat="43.8992077" lon="12.9389738"><ele>0.0</ele><time>2026-04-14T17:19:31.792Z</time></trkpt><trkpt lat="43.8992733" lon="12.938902"><ele>0.0</ele><time>2026-04-14T17:19:32.79Z</time></trkpt><trkpt lat="43.8993239" lon="12.9388359"><ele>0.0</ele><time>2026-04-14T17:19:33.795Z</time></trkpt><trkpt lat="43.8993944" lon="12.9387405"><ele>0.0</ele><time>2026-04-14T17:19:35.785Z</time></trkpt><trkpt lat="43.8994368" lon="12.9386647"><ele>0.0</ele><time>2026-04-14T17:19:37.783Z</time></trkpt><trkpt lat="43.8994897" lon="12.9385987"><ele>0.0</ele><time>2026-04-14T17:19:39.782Z</time></trkpt><trkpt lat="43.8995379" lon="12.9385221"><ele>0.0</ele><time>2026-04-14T17:19:41.778Z</time></trkpt><trkpt lat="43.8995774" lon="12.938452"><ele>0.0</ele><time>2026-04-14T17:19:43.786Z</time></trkpt><trkpt lat="43.8996288" lon="12.9383711"><ele>0.0</ele><time>2026-04-14T17:19:46.792Z</time></trkpt><trkpt lat="43.899682" lon="12.9382928"><ele>0.0</ele><time>2026-04-14T17:19:49.791Z</time></trkpt><trkpt lat="43.8997476" lon="12.9382162"><ele>0.0</ele><time>2026-04-14T17:19:52.791Z</time></trkpt><trkpt lat="43.8998027" lon="12.9381263"><ele>0.0</ele><time>2026-04-14T17:19:55.785Z</time></trkpt><trkpt lat="43.8998567" lon="12.9380207"><ele>0.0</ele><time>2026-04-14T17:19:58.787Z</time></trkpt><trkpt lat="43.8999085" lon="12.9379319"><ele>0.0</ele><time>2026-04-14T17:20:01.792Z</time></trkpt><trkpt lat="43.8999544" lon="12.9378392"><ele>0.0</ele><time>2026-04-14T17:20:04.794Z</time></trkpt><trkpt lat="43.9000129" lon="12.9377568"><ele>0.0</ele><time>2026-04-14T17:20:07.795Z</time></trkpt><trkpt lat="43.9000756" lon="12.9376901"><ele>0.0</ele><time>2026-04-14T17:20:10.789Z</time></trkpt><trkpt lat="43.900138" lon="12.9376022"><ele>0.0</ele><time>2026-04-14T17:20:13.799Z</time></trkpt><trkpt lat="43.9001874" lon="12.9375284"><ele>0.0</ele><time>2026-04-14T17:20:16.807Z</time></trkpt><trkpt lat="43.9002288" lon="12.9374461"><ele>0.0</ele><time>2026-04-14T17:20:19.79Z</time></trkpt><trkpt lat="43.9002789" lon="12.9373629"><ele>0.0</ele><time>2026-04-14T17:20:22.79Z</time></trkpt><trkpt lat="43.9003352" lon="12.9372903"><ele>0.0</ele><time>2026-04-14T17:20:25.784Z</time></trkpt><trkpt lat="43.9003966" lon="12.9372052"><ele>0.0</ele><time>2026-04-14T17:20:28.802Z</time></trkpt><trkpt lat="43.9004398" lon="12.9371365"><ele>0.0</ele><time>2026-04-14T17:20:30.795Z</time></trkpt><trkpt lat="43.9004923" lon="12.9370481"><ele>0.0</ele><time>2026-04-14T17:20:33.791Z</time></trkpt><trkpt lat="43.9005571" lon="12.9369506"><ele>0.0</ele><time>2026-04-14T17:20:36.796Z</time></trkpt><trkpt lat="43.9006212" lon="12.9368494"><ele>0.0</ele><time>2026-04-14T17:20:39.792Z</time></trkpt><trkpt lat="43.9007" lon="12.9366577"><ele>0.0</ele><time>2026-04-14T17:20:41.771Z</time></trkpt><trkpt lat="43.9007692" lon="12.9365476"><ele>0.0</ele><time>2026-04-14T17:20:42.767Z</time></trkpt><trkpt lat="43.9008472" lon="12.9364877"><ele>0.0</ele><time>2026-04-14T17:20:43.761Z</time></trkpt><trkpt lat="43.9009203" lon="12.9365672"><ele>0.0</ele><time>2026-04-14T17:20:46.772Z</time></trkpt><trkpt lat="43.9008989" lon="12.9364697"><ele>0.0</ele><time>2026-04-14T17:20:52.78Z</time></trkpt><trkpt lat="43.9009426" lon="12.9363819"><ele>0.0</ele><time>2026-04-14T17:20:56.783Z</time></trkpt><trkpt lat="43.9009998" lon="12.9362955"><ele>0.0</ele><time>2026-04-14T17:20:59.778Z</time></trkpt><trkpt lat="43.9010652" lon="12.9362213"><ele>0.0</ele><time>2026-04-14T17:21:02.783Z</time></trkpt><trkpt lat="43.9011028" lon="12.9361224"><ele>0.0</ele><time>2026-04-14T17:21:05.781Z</time></trkpt><trkpt lat="43.901162" lon="12.9360584"><ele>0.0</ele><time>2026-04-14T17:21:08.786Z</time></trkpt><trkpt lat="43.9012434" lon="12.9360832"><ele>0.0</ele><time>2026-04-14T17:21:12.777Z</time></trkpt><trkpt lat="43.901289" lon="12.9361483"><ele>0.0</ele><time>2026-04-14T17:21:13.779Z</time></trkpt><trkpt lat="43.9013528" lon="12.9361372"><ele>0.0</ele><time>2026-04-14T17:21:19.797Z</time></trkpt><trkpt lat="43.9013781" lon="12.9360213"><ele>0.0</ele><time>2026-04-14T17:21:21.782Z</time></trkpt><trkpt lat="43.9013907" lon="12.9358686"><ele>0.0</ele><time>2026-04-14T17:21:23.788Z</time></trkpt><trkpt lat="43.9014299" lon="12.9357687"><ele>0.0</ele><time>2026-04-14T17:21:25.785Z</time></trkpt><trkpt lat="43.9015056" lon="12.935687"><ele>0.0</ele><time>2026-04-14T17:21:27.788Z</time></trkpt><trkpt lat="43.9015742" lon="12.9356123"><ele>0.0</ele><time>2026-04-14T17:21:29.781Z</time></trkpt><trkpt lat="43.9016272" lon="12.9355348"><ele>0.0</ele><time>2026-04-14T17:21:31.785Z</time></trkpt><trkpt lat="43.9016712" lon="12.9354456"><ele>0.0</ele><time>2026-04-14T17:21:33.792Z</time></trkpt><trkpt lat="43.9017103" lon="12.9353581"><ele>0.0</ele><time>2026-04-14T17:21:35.795Z</time></trkpt><trkpt lat="43.9017545" lon="12.9352726"><ele>0.0</ele><time>2026-04-14T17:21:37.794Z</time></trkpt><trkpt lat="43.9017899" lon="12.9351547"><ele>0.0</ele><time>2026-04-14T17:21:40.798Z</time></trkpt><trkpt lat="43.9017954" lon="12.9350524"><ele>0.0</ele><time>2026-04-14T17:21:42.801Z</time></trkpt><trkpt lat="43.9018468" lon="12.9349743"><ele>0.0</ele><time>2026-04-14T17:21:44.795Z</time></trkpt><trkpt lat="43.9018997" lon="12.9349027"><ele>0.0</ele><time>2026-04-14T17:21:46.799Z</time></trkpt><trkpt lat="43.9019522" lon="12.9348202"><ele>0.0</ele><time>2026-04-14T17:21:49.825Z</time></trkpt><trkpt lat="43.9020043" lon="12.9347648"><ele>0.0</ele><time>2026-04-14T17:21:51.793Z</time></trkpt><trkpt lat="43.9020745" lon="12.9346802"><ele>0.0</ele><time>2026-04-14T17:21:54.788Z</time></trkpt><trkpt lat="43.9021386" lon="12.9346083"><ele>0.0</ele><time>2026-04-14T17:21:57.785Z</time></trkpt><trkpt lat="43.9022115" lon="12.9345451"><ele>0.0</ele><time>2026-04-14T17:22:00.785Z</time></trkpt><trkpt lat="43.9022859" lon="12.9344731"><ele>0.0</ele><time>2026-04-14T17:22:03.79Z</time></trkpt><trkpt lat="43.9023414" lon="12.9343738"><ele>0.0</ele><time>2026-04-14T17:22:06.788Z</time></trkpt><trkpt lat="43.9024081" lon="12.9342848"><ele>0.0</ele><time>2026-04-14T17:22:09.798Z</time></trkpt><trkpt lat="43.9024801" lon="12.9341965"><ele>0.0</ele><time>2026-04-14T17:22:12.797Z</time></trkpt><trkpt lat="43.9025362" lon="12.9340975"><ele>0.0</ele><time>2026-04-14T17:22:15.802Z</time></trkpt><trkpt lat="43.9025795" lon="12.9340059"><ele>0.0</ele><time>2026-04-14T17:22:18.793Z</time></trkpt><trkpt lat="43.9026297" lon="12.9339189"><ele>0.0</ele><time>2026-04-14T17:22:21.787Z</time></trkpt><trkpt lat="43.9026836" lon="12.933867"><ele>0.0</ele><time>2026-04-14T17:22:23.802Z</time></trkpt><trkpt lat="43.9027455" lon="12.9338111"><ele>0.0</ele><time>2026-04-14T17:22:25.798Z</time></trkpt><trkpt lat="43.9028097" lon="12.9337234"><ele>0.0</ele><time>2026-04-14T17:22:28.792Z</time></trkpt><trkpt lat="43.9028716" lon="12.9336518"><ele>0.0</ele><time>2026-04-14T17:22:31.805Z</time></trkpt><trkpt lat="43.9029287" lon="12.9335732"><ele>0.0</ele><time>2026-04-14T17:22:34.805Z</time></trkpt><trkpt lat="43.9029767" lon="12.9334849"><ele>0.0</ele><time>2026-04-14T17:22:37.798Z</time></trkpt><trkpt lat="43.9030356" lon="12.9333963"><ele>0.0</ele><time>2026-04-14T17:22:40.799Z</time></trkpt><trkpt lat="43.9030932" lon="12.9333212"><ele>0.0</ele><time>2026-04-14T17:22:43.795Z</time></trkpt><trkpt lat="43.9031435" lon="12.9332506"><ele>0.0</ele><time>2026-04-14T17:22:46.792Z</time></trkpt><trkpt lat="43.9031939" lon="12.9331946"><ele>0.0</ele><time>2026-04-14T17:22:48.789Z</time></trkpt><trkpt lat="43.9032727" lon="12.9331292"><ele>0.0</ele><time>2026-04-14T17:22:51.783Z</time></trkpt><trkpt lat="43.9033276" lon="12.9330405"><ele>0.0</ele><time>2026-04-14T17:22:54.794Z</time></trkpt><trkpt lat="43.9033742" lon="12.9329533"><ele>0.0</ele><time>2026-04-14T17:22:57.799Z</time></trkpt><trkpt lat="43.9034243" lon="12.9328845"><ele>0.0</ele><time>2026-04-14T17:23:00.794Z</time></trkpt><trkpt lat="43.9034851" lon="12.9328037"><ele>0.0</ele><time>2026-04-14T17:23:03.803Z</time></trkpt><trkpt lat="43.9035408" lon="12.9327287"><ele>0.0</ele><time>2026-04-14T17:23:06.79Z</time></trkpt><trkpt lat="43.9036045" lon="12.9326553"><ele>0.0</ele><time>2026-04-14T17:23:09.796Z</time></trkpt><trkpt lat="43.9036653" lon="12.9325889"><ele>0.0</ele><time>2026-04-14T17:23:12.798Z</time></trkpt><trkpt lat="43.9037451" lon="12.9325301"><ele>0.0</ele><time>2026-04-14T17:23:15.793Z</time></trkpt><trkpt lat="43.903822" lon="12.9324618"><ele>0.0</ele><time>2026-04-14T17:23:18.811Z</time></trkpt><trkpt lat="43.9038776" lon="12.9323958"><ele>0.16666666666666666</ele><time>2026-04-14T17:23:21.794Z</time></trkpt><trkpt lat="43.9039304" lon="12.9323134"><ele>0.3333333333333333</ele><time>2026-04-14T17:23:24.802Z</time></trkpt><trkpt lat="43.9039824" lon="12.9322379"><ele>0.5</ele><time>2026-04-14T17:23:27.795Z</time></trkpt><trkpt lat="43.9040557" lon="12.932161"><ele>0.6666666666666666</ele><time>2026-04-14T17:23:30.795Z</time></trkpt><trkpt lat="43.9041042" lon="12.9321042"><ele>0.8333333333333333</ele><time>2026-04-14T17:23:32.799Z</time></trkpt><trkpt lat="43.904173" lon="12.932019"><ele>1.0</ele><time>2026-04-14T17:23:35.793Z</time></trkpt><trkpt lat="43.9042255" lon="12.9319678"><ele>0.9999999999999999</ele><time>2026-04-14T17:23:37.8Z</time></trkpt><trkpt lat="43.9042631" lon="12.931876"><ele>1.0</ele><time>2026-04-14T17:23:40.806Z</time></trkpt><trkpt lat="43.9042371" lon="12.9317579"><ele>1.0</ele><time>2026-04-14T17:23:43.803Z</time></trkpt><trkpt lat="43.9042589" lon="12.9316672"><ele>1.0</ele><time>2026-04-14T17:23:46.805Z</time></trkpt><trkpt lat="43.9043339" lon="12.9315836"><ele>0.9999999999999999</ele><time>2026-04-14T17:23:49.794Z</time></trkpt><trkpt lat="43.9044061" lon="12.93151"><ele>1.0</ele><time>2026-04-14T17:23:52.798Z</time></trkpt><trkpt lat="43.9044551" lon="12.9314459"><ele>0.8333333333333333</ele><time>2026-04-14T17:23:54.797Z</time></trkpt><trkpt lat="43.9045105" lon="12.9313634"><ele>0.6666666666666666</ele><time>2026-04-14T17:23:57.804Z</time></trkpt><trkpt lat="43.9045707" lon="12.9312708"><ele>0.5</ele><time>2026-04-14T17:24:00.793Z</time></trkpt><trkpt lat="43.9046107" lon="12.9312004"><ele>0.3333333333333333</ele><time>2026-04-14T17:24:02.802Z</time></trkpt><trkpt lat="43.9046692" lon="12.9311183"><ele>0.16666666666666666</ele><time>2026-04-14T17:24:05.807Z</time></trkpt><trkpt lat="43.9047369" lon="12.931047"><ele>0.0</ele><time>2026-04-14T17:24:08.803Z</time></trkpt><trkpt lat="43.9047985" lon="12.9309608"><ele>0.16666666666666666</ele><time>2026-04-14T17:24:11.797Z</time></trkpt><trkpt lat="43.9048618" lon="12.9308741"><ele>0.3333333333333333</ele><time>2026-04-14T17:24:14.801Z</time></trkpt><trkpt lat="43.9049279" lon="12.9307795"><ele>0.5</ele><time>2026-04-14T17:24:17.786Z</time></trkpt><trkpt lat="43.9049879" lon="12.9306397"><ele>0.6666666666666666</ele><time>2026-04-14T17:24:19.763Z</time></trkpt><trkpt lat="43.9049832" lon="12.9305472"><ele>0.8333333333333333</ele><time>2026-04-14T17:24:20.77Z</time></trkpt><trkpt lat="43.905007" lon="12.9304523"><ele>1.0</ele><time>2026-04-14T17:24:22.79Z</time></trkpt><trkpt lat="43.9050692" lon="12.9304346"><ele>1.0</ele><time>2026-04-14T17:24:26.783Z</time></trkpt><trkpt lat="43.9051414" lon="12.9304206"><ele>0.9999999999999999</ele><time>2026-04-14T17:24:29.783Z</time></trkpt><trkpt lat="43.905205" lon="12.9303759"><ele>1.0</ele><time>2026-04-14T17:24:32.804Z</time></trkpt><trkpt lat="43.9052653" lon="12.9303091"><ele>1.0</ele><time>2026-04-14T17:24:35.793Z</time></trkpt><trkpt lat="43.9053104" lon="12.930247"><ele>0.9999999999999999</ele><time>2026-04-14T17:24:37.794Z</time></trkpt><trkpt lat="43.9053679" lon="12.9301721"><ele>1.0</ele><time>2026-04-14T17:24:40.785Z</time></trkpt><trkpt lat="43.905421" lon="12.93008"><ele>1.0</ele><time>2026-04-14T17:24:43.785Z</time></trkpt><trkpt lat="43.9054593" lon="12.9299765"><ele>0.9999999999999999</ele><time>2026-04-14T17:24:46.786Z</time></trkpt><trkpt lat="43.9055046" lon="12.9298841"><ele>1.0</ele><time>2026-04-14T17:24:49.792Z</time></trkpt><trkpt lat="43.9055702" lon="12.9298015"><ele>1.0</ele><time>2026-04-14T17:24:52.8Z</time></trkpt><trkpt lat="43.9056296" lon="12.9297078"><ele>1.0</ele><time>2026-04-14T17:24:55.79Z</time></trkpt><trkpt lat="43.9056901" lon="12.9296113"><ele>0.9999999999999999</ele><time>2026-04-14T17:24:58.784Z</time></trkpt><trkpt lat="43.9057402" lon="12.9295215"><ele>1.0</ele><time>2026-04-14T17:25:01.785Z</time></trkpt><trkpt lat="43.9058052" lon="12.9294344"><ele>0.9999999999999999</ele><time>2026-04-14T17:25:04.786Z</time></trkpt><trkpt lat="43.9058464" lon="12.9293558"><ele>1.0</ele><time>2026-04-14T17:25:07.79Z</time></trkpt><trkpt lat="43.9058978" lon="12.9292699"><ele>1.0</ele><time>2026-04-14T17:25:10.79Z</time></trkpt><trkpt lat="43.9059339" lon="12.9291979"><ele>1.0</ele><time>2026-04-14T17:25:12.797Z</time></trkpt><trkpt lat="43.9059886" lon="12.929096"><ele>0.9999999999999999</ele><time>2026-04-14T17:25:15.799Z</time></trkpt><trkpt lat="43.906037" lon="12.929007"><ele>1.0</ele><time>2026-04-14T17:25:18.791Z</time></trkpt><trkpt lat="43.9060786" lon="12.9289104"><ele>0.9999999999999999</ele><time>2026-04-14T17:25:21.8Z</time></trkpt><trkpt lat="43.9061209" lon="12.9288089"><ele>1.0</ele><time>2026-04-14T17:25:24.817Z</time></trkpt><trkpt lat="43.9061683" lon="12.9287178"><ele>1.0</ele><time>2026-04-14T17:25:27.798Z</time></trkpt><trkpt lat="43.9062177" lon="12.9286162"><ele>1.0</ele><time>2026-04-14T17:25:30.8Z</time></trkpt><trkpt lat="43.9062766" lon="12.9285293"><ele>0.9999999999999999</ele><time>2026-04-14T17:25:33.802Z</time></trkpt><trkpt lat="43.9063337" lon="12.9284461"><ele>1.0</ele><time>2026-04-14T17:25:36.784Z</time></trkpt><trkpt lat="43.9063822" lon="12.9283698"><ele>0.9999999999999999</ele><time>2026-04-14T17:25:39.799Z</time></trkpt><trkpt lat="43.9064532" lon="12.9282762"><ele>1.0</ele><time>2026-04-14T17:25:42.788Z</time></trkpt><trkpt lat="43.906512" lon="12.9281927"><ele>1.0</ele><time>2026-04-14T17:25:45.789Z</time></trkpt><trkpt lat="43.9065763" lon="12.9281002"><ele>1.0</ele><time>2026-04-14T17:25:48.805Z</time></trkpt><trkpt lat="43.906632" lon="12.928013"><ele>0.9999999999999999</ele><time>2026-04-14T17:25:51.804Z</time></trkpt><trkpt lat="43.9066906" lon="12.9279485"><ele>1.0</ele><time>2026-04-14T17:25:54.801Z</time></trkpt><trkpt lat="43.9067379" lon="12.9278731"><ele>0.9999999999999999</ele><time>2026-04-14T17:25:57.799Z</time></trkpt><trkpt lat="43.9067719" lon="12.9277851"><ele>1.0</ele><time>2026-04-14T17:26:00.809Z</time></trkpt><trkpt lat="43.9068192" lon="12.9276922"><ele>1.0</ele><time>2026-04-14T17:26:03.803Z</time></trkpt><trkpt lat="43.9068795" lon="12.9276117"><ele>1.0</ele><time>2026-04-14T17:26:06.804Z</time></trkpt><trkpt lat="43.9069448" lon="12.9275329"><ele>0.9999999999999999</ele><time>2026-04-14T17:26:09.802Z</time></trkpt><trkpt lat="43.9069993" lon="12.92746"><ele>1.0</ele><time>2026-04-14T17:26:12.801Z</time></trkpt><trkpt lat="43.9070461" lon="12.9273915"><ele>2.0</ele><time>2026-04-14T17:26:15.813Z</time></trkpt><trkpt lat="43.9070986" lon="12.9273087"><ele>3.0</ele><time>2026-04-14T17:26:18.811Z</time></trkpt><trkpt lat="43.9071437" lon="12.9272441"><ele>4.0</ele><time>2026-04-14T17:26:20.803Z</time></trkpt><trkpt lat="43.9072036" lon="12.9271481"><ele>5.0</ele><time>2026-04-14T17:26:23.799Z</time></trkpt><trkpt lat="43.9072533" lon="12.9270769"><ele>6.000000000000001</ele><time>2026-04-14T17:26:26.827Z</time></trkpt><trkpt lat="43.9072725" lon="12.9269639"><ele>7.0</ele><time>2026-04-14T17:26:33.768Z</time></trkpt><trkpt lat="43.9073508" lon="12.9268846"><ele>7.000000000000001</ele><time>2026-04-14T17:26:35.772Z</time></trkpt><trkpt lat="43.9074299" lon="12.9268084"><ele>7.0</ele><time>2026-04-14T17:26:37.782Z</time></trkpt><trkpt lat="43.9075075" lon="12.9267647"><ele>7.0</ele><time>2026-04-14T17:26:39.79Z</time></trkpt><trkpt lat="43.9075603" lon="12.9267105"><ele>7.0</ele><time>2026-04-14T17:26:41.792Z</time></trkpt><trkpt lat="43.907631" lon="12.926659"><ele>7.000000000000001</ele><time>2026-04-14T17:26:44.788Z</time></trkpt><trkpt lat="43.907684" lon="12.9265955"><ele>7.0</ele><time>2026-04-14T17:26:47.794Z</time></trkpt><trkpt lat="43.9077256" lon="12.9265157"><ele>6.000000000000001</ele><time>2026-04-14T17:26:50.785Z</time></trkpt><trkpt lat="43.9077585" lon="12.926437"><ele>5.0</ele><time>2026-04-14T17:26:52.797Z</time></trkpt><trkpt lat="43.9078059" lon="12.9263344"><ele>4.0</ele><time>2026-04-14T17:26:55.795Z</time></trkpt><trkpt lat="43.9078543" lon="12.9262473"><ele>3.0</ele><time>2026-04-14T17:26:58.788Z</time></trkpt><trkpt lat="43.9079155" lon="12.9261722"><ele>2.0</ele><time>2026-04-14T17:27:01.792Z</time></trkpt><trkpt lat="43.9079747" lon="12.9260769"><ele>1.0</ele><time>2026-04-14T17:27:04.793Z</time></trkpt><trkpt lat="43.9080321" lon="12.9259808"><ele>1.3333333333333333</ele><time>2026-04-14T17:27:07.794Z</time></trkpt><trkpt lat="43.9080784" lon="12.9258792"><ele>1.6666666666666665</ele><time>2026-04-14T17:27:10.796Z</time></trkpt><trkpt lat="43.9081265" lon="12.9257847"><ele>2.0</ele><time>2026-04-14T17:27:13.794Z</time></trkpt><trkpt lat="43.9081871" lon="12.9257066"><ele>2.3333333333333335</ele><time>2026-04-14T17:27:16.793Z</time></trkpt><trkpt lat="43.9082397" lon="12.9256112"><ele>2.6666666666666665</ele><time>2026-04-14T17:27:19.796Z</time></trkpt><trkpt lat="43.9083043" lon="12.9255245"><ele>3.0</ele><time>2026-04-14T17:27:22.804Z</time></trkpt><trkpt lat="43.9083642" lon="12.9254442"><ele>2.6666666666666665</ele><time>2026-04-14T17:27:25.796Z</time></trkpt><trkpt lat="43.9084126" lon="12.9253698"><ele>2.3333333333333335</ele><time>2026-04-14T17:27:28.79Z</time></trkpt><trkpt lat="43.9084891" lon="12.9253249"><ele>2.0</ele><time>2026-04-14T17:27:31.796Z</time></trkpt><trkpt lat="43.908558" lon="12.9252441"><ele>1.6666666666666665</ele><time>2026-04-14T17:27:34.792Z</time></trkpt><trkpt lat="43.9086064" lon="12.9251555"><ele>1.3333333333333333</ele><time>2026-04-14T17:27:37.798Z</time></trkpt><trkpt lat="43.9086729" lon="12.9250708"><ele>1.0</ele><time>2026-04-14T17:27:40.782Z</time></trkpt><trkpt lat="43.9087074" lon="12.9249891"><ele>2.5</ele><time>2026-04-14T17:27:42.777Z</time></trkpt><trkpt lat="43.9087941" lon="12.9249511"><ele>4.0</ele><time>2026-04-14T17:27:48.787Z</time></trkpt><trkpt lat="43.908845" lon="12.9248925"><ele>5.5</ele><time>2026-04-14T17:27:50.789Z</time></trkpt><trkpt lat="43.9088934" lon="12.9247978"><ele>7.0</ele><time>2026-04-14T17:27:53.79Z</time></trkpt><trkpt lat="43.9089335" lon="12.9247303"><ele>8.5</ele><time>2026-04-14T17:27:55.782Z</time></trkpt><trkpt lat="43.908973" lon="12.9246594"><ele>10.0</ele><time>2026-04-14T17:27:57.791Z</time></trkpt><trkpt lat="43.9090333" lon="12.9245685"><ele>10.0</ele><time>2026-04-14T17:28:00.801Z</time></trkpt><trkpt lat="43.9090591" lon="12.9244665"><ele>10.0</ele><time>2026-04-14T17:28:02.798Z</time></trkpt><trkpt lat="43.9090775" lon="12.9243661"><ele>10.0</ele><time>2026-04-14T17:28:04.792Z</time></trkpt><trkpt lat="43.9091162" lon="12.9242768"><ele>10.0</ele><time>2026-04-14T17:28:09.78Z</time></trkpt><trkpt lat="43.909183" lon="12.9242189"><ele>10.0</ele><time>2026-04-14T17:28:12.79Z</time></trkpt><trkpt lat="43.9092734" lon="12.9241927"><ele>10.0</ele><time>2026-04-14T17:28:15.785Z</time></trkpt><trkpt lat="43.9093516" lon="12.9241247"><ele>8.333333333333334</ele><time>2026-04-14T17:28:18.79Z</time></trkpt><trkpt lat="43.9094289" lon="12.9240673"><ele>6.666666666666667</ele><time>2026-04-14T17:28:21.793Z</time></trkpt><trkpt lat="43.9094799" lon="12.9240029"><ele>5.0</ele><time>2026-04-14T17:28:24.811Z</time></trkpt><trkpt lat="43.9095386" lon="12.9239225"><ele>3.3333333333333335</ele><time>2026-04-14T17:28:27.802Z</time></trkpt><trkpt lat="43.9095851" lon="12.9238225"><ele>1.6666666666666667</ele><time>2026-04-14T17:28:30.795Z</time></trkpt><trkpt lat="43.9096403" lon="12.923746"><ele>0.0</ele><time>2026-04-14T17:28:33.792Z</time></trkpt><trkpt lat="43.9096958" lon="12.9236579"><ele>0.0</ele><time>2026-04-14T17:28:37.786Z</time></trkpt><trkpt lat="43.9097469" lon="12.9235593"><ele>0.0</ele><time>2026-04-14T17:28:40.782Z</time></trkpt><trkpt lat="43.9097988" lon="12.9235029"><ele>0.0</ele><time>2026-04-14T17:28:42.778Z</time></trkpt><trkpt lat="43.9098838" lon="12.9233902"><ele>0.0</ele><time>2026-04-14T17:28:45.777Z</time></trkpt><trkpt lat="43.9099508" lon="12.9233541"><ele>0.0</ele><time>2026-04-14T17:28:48.782Z</time></trkpt><trkpt lat="43.9099971" lon="12.9232645"><ele>0.0</ele><time>2026-04-14T17:28:51.795Z</time></trkpt><trkpt lat="43.910033" lon="12.9231904"><ele>0.5</ele><time>2026-04-14T17:28:53.79Z</time></trkpt><trkpt lat="43.9100761" lon="12.9231004"><ele>1.0</ele><time>2026-04-14T17:28:56.799Z</time></trkpt><trkpt lat="43.9101419" lon="12.9230168"><ele>1.5</ele><time>2026-04-14T17:28:59.796Z</time></trkpt><trkpt lat="43.9101913" lon="12.9229325"><ele>2.0</ele><time>2026-04-14T17:29:02.782Z</time></trkpt><trkpt lat="43.9102482" lon="12.9228747"><ele>2.5</ele><time>2026-04-14T17:29:05.778Z</time></trkpt><trkpt lat="43.9103017" lon="12.9227981"><ele>3.0</ele><time>2026-04-14T17:29:10.768Z</time></trkpt><trkpt lat="43.9103548" lon="12.9226855"><ele>3.0</ele><time>2026-04-14T17:29:13.777Z</time></trkpt><trkpt lat="43.9104018" lon="12.9225766"><ele>3.0</ele><time>2026-04-14T17:29:16.781Z</time></trkpt><trkpt lat="43.9103855" lon="12.9224893"><ele>3.0</ele><time>2026-04-14T17:29:18.778Z</time></trkpt><trkpt lat="43.9104568" lon="12.9225723"><ele>3.0</ele><time>2026-04-14T17:29:21.772Z</time></trkpt><trkpt lat="43.9105344" lon="12.922594"><ele>3.0</ele><time>2026-04-14T17:29:23.772Z</time></trkpt><trkpt lat="43.9105752" lon="12.9224665"><ele>3.0</ele><time>2026-04-14T17:29:25.78Z</time></trkpt><trkpt lat="43.9105942" lon="12.9223076"><ele>3.3333333333333335</ele><time>2026-04-14T17:29:27.781Z</time></trkpt><trkpt lat="43.9106012" lon="12.9222155"><ele>3.666666666666667</ele><time>2026-04-14T17:29:28.785Z</time></trkpt><trkpt lat="43.9106424" lon="12.9221313"><ele>4.0</ele><time>2026-04-14T17:29:30.794Z</time></trkpt><trkpt lat="43.9107197" lon="12.9220949"><ele>4.333333333333334</ele><time>2026-04-14T17:29:32.793Z</time></trkpt><trkpt lat="43.9107883" lon="12.9220625"><ele>4.666666666666667</ele><time>2026-04-14T17:29:34.798Z</time></trkpt><trkpt lat="43.9108615" lon="12.9219783"><ele>5.0</ele><time>2026-04-14T17:29:37.782Z</time></trkpt><trkpt lat="43.9109316" lon="12.9218957"><ele>4.571428571428571</ele><time>2026-04-14T17:29:39.778Z</time></trkpt><trkpt lat="43.9109988" lon="12.9218716"><ele>4.142857142857143</ele><time>2026-04-14T17:29:40.771Z</time></trkpt><trkpt lat="43.9110607" lon="12.9218543"><ele>3.7142857142857144</ele><time>2026-04-14T17:29:41.772Z</time></trkpt><trkpt lat="43.9111355" lon="12.9218409"><ele>3.2857142857142856</ele><time>2026-04-14T17:29:43.775Z</time></trkpt><trkpt lat="43.9112212" lon="12.9218387"><ele>2.8571428571428568</ele><time>2026-04-14T17:29:46.782Z</time></trkpt><trkpt lat="43.9112827" lon="12.9217602"><ele>2.4285714285714284</ele><time>2026-04-14T17:29:49.782Z</time></trkpt><trkpt lat="43.9112807" lon="12.9216672"><ele>2.0</ele><time>2026-04-14T17:29:51.776Z</time></trkpt><trkpt lat="43.9113139" lon="12.921583"><ele>1.9999999999999998</ele><time>2026-04-14T17:29:56.772Z</time></trkpt><trkpt lat="43.9113572" lon="12.9214893"><ele>2.0</ele><time>2026-04-14T17:29:59.802Z</time></trkpt><trkpt lat="43.9113749" lon="12.9213784"><ele>2.0</ele><time>2026-04-14T17:30:02.794Z</time></trkpt><trkpt lat="43.911422" lon="12.9212938"><ele>2.0</ele><time>2026-04-14T17:30:05.796Z</time></trkpt><trkpt lat="43.911477" lon="12.9212231"><ele>1.9999999999999998</ele><time>2026-04-14T17:30:08.798Z</time></trkpt><trkpt lat="43.9115357" lon="12.9211817"><ele>2.0</ele><time>2026-04-14T17:30:11.795Z</time></trkpt><trkpt lat="43.9116088" lon="12.9211592"><ele>1.9999999999999998</ele><time>2026-04-14T17:30:14.782Z</time></trkpt><trkpt lat="43.91168" lon="12.9211856"><ele>2.0</ele><time>2026-04-14T17:30:18.779Z</time></trkpt><trkpt lat="43.9117584" lon="12.9211749"><ele>2.0</ele><time>2026-04-14T17:30:21.777Z</time></trkpt><trkpt lat="43.9118519" lon="12.9211302"><ele>2.0</ele><time>2026-04-14T17:30:24.78Z</time></trkpt><trkpt lat="43.9119259" lon="12.9212087"><ele>1.9999999999999998</ele><time>2026-04-14T17:30:26.782Z</time></trkpt><trkpt lat="43.9119452" lon="12.9213098"><ele>2.0</ele><time>2026-04-14T17:30:27.795Z</time></trkpt><trkpt lat="43.9119635" lon="12.9213992"><ele>1.6666666666666665</ele><time>2026-04-14T17:30:28.791Z</time></trkpt><trkpt lat="43.9120187" lon="12.9214475"><ele>1.3333333333333333</ele><time>2026-04-14T17:30:31.798Z</time></trkpt><trkpt lat="43.9120763" lon="12.9214859"><ele>1.0</ele><time>2026-04-14T17:30:36.783Z</time></trkpt><trkpt lat="43.9121613" lon="12.9215005"><ele>0.6666666666666666</ele><time>2026-04-14T17:30:41.79Z</time></trkpt><trkpt lat="43.9122143" lon="12.9214505"><ele>0.3333333333333333</ele><time>2026-04-14T17:30:43.798Z</time></trkpt><trkpt lat="43.9122772" lon="12.9213609"><ele>0.0</ele><time>2026-04-14T17:30:46.807Z</time></trkpt><trkpt lat="43.9123317" lon="12.9212641"><ele>0.0</ele><time>2026-04-14T17:30:49.797Z</time></trkpt><trkpt lat="43.9123975" lon="12.9211886"><ele>0.0</ele><time>2026-04-14T17:30:52.794Z</time></trkpt><trkpt lat="43.9124574" lon="12.921134"><ele>0.0</ele><time>2026-04-14T17:30:55.783Z</time></trkpt><trkpt lat="43.9125258" lon="12.9210831"><ele>0.0</ele><time>2026-04-14T17:30:58.783Z</time></trkpt><trkpt lat="43.9125765" lon="12.9210247"><ele>0.0</ele><time>2026-04-14T17:31:01.817Z</time></trkpt><trkpt lat="43.912603" lon="12.9209146"><ele>0.0</ele><time>2026-04-14T17:31:05.801Z</time></trkpt><trkpt lat="43.9126324" lon="12.9208259"><ele>0.0</ele><time>2026-04-14T17:31:08.791Z</time></trkpt><trkpt lat="43.9126723" lon="12.9207481"><ele>0.0</ele><time>2026-04-14T17:31:11.798Z</time></trkpt><trkpt lat="43.9127364" lon="12.9206651"><ele>0.0</ele><time>2026-04-14T17:31:14.795Z</time></trkpt><trkpt lat="43.9127925" lon="12.9205844"><ele>0.0</ele><time>2026-04-14T17:31:17.796Z</time></trkpt><trkpt lat="43.9128497" lon="12.920498"><ele>0.0</ele><time>2026-04-14T17:31:20.794Z</time></trkpt><trkpt lat="43.9128857" lon="12.9204183"><ele>0.0</ele><time>2026-04-14T17:31:23.796Z</time></trkpt><trkpt lat="43.9129338" lon="12.9203446"><ele>0.0</ele><time>2026-04-14T17:31:26.806Z</time></trkpt><trkpt lat="43.9129836" lon="12.9202576"><ele>0.0</ele><time>2026-04-14T17:31:29.797Z</time></trkpt><trkpt lat="43.9130268" lon="12.9201672"><ele>0.0</ele><time>2026-04-14T17:31:32.789Z</time></trkpt><trkpt lat="43.9130667" lon="12.9200912"><ele>0.0</ele><time>2026-04-14T17:31:35.796Z</time></trkpt><trkpt lat="43.9131403" lon="12.9200223"><ele>0.0</ele><time>2026-04-14T17:31:39.789Z</time></trkpt><trkpt lat="43.9132248" lon="12.9199766"><ele>0.0</ele><time>2026-04-14T17:31:42.785Z</time></trkpt><trkpt lat="43.9133038" lon="12.9199197"><ele>0.0</ele><time>2026-04-14T17:31:45.794Z</time></trkpt><trkpt lat="43.9133753" lon="12.9198601"><ele>0.0</ele><time>2026-04-14T17:31:48.789Z</time></trkpt><trkpt lat="43.9134341" lon="12.9197932"><ele>0.0</ele><time>2026-04-14T17:31:51.797Z</time></trkpt><trkpt lat="43.9134985" lon="12.919738"><ele>0.0</ele><time>2026-04-14T17:31:54.794Z</time></trkpt><trkpt lat="43.9135655" lon="12.9196605"><ele>0.0</ele><time>2026-04-14T17:31:57.791Z</time></trkpt><trkpt lat="43.913642" lon="12.9196039"><ele>0.0</ele><time>2026-04-14T17:32:00.793Z</time></trkpt><trkpt lat="43.9136994" lon="12.9195383"><ele>0.0</ele><time>2026-04-14T17:32:03.791Z</time></trkpt><trkpt lat="43.9137462" lon="12.919471"><ele>0.0</ele><time>2026-04-14T17:32:06.794Z</time></trkpt><trkpt lat="43.9137997" lon="12.9193963"><ele>0.0</ele><time>2026-04-14T17:32:09.784Z</time></trkpt><trkpt lat="43.9138648" lon="12.919316"><ele>0.0</ele><time>2026-04-14T17:32:12.799Z</time></trkpt><trkpt lat="43.9139264" lon="12.9192268"><ele>0.0</ele><time>2026-04-14T17:32:15.793Z</time></trkpt><trkpt lat="43.9140015" lon="12.9191905"><ele>0.0</ele><time>2026-04-14T17:32:18.796Z</time></trkpt><trkpt lat="43.9140667" lon="12.919233"><ele>0.0</ele><time>2026-04-14T17:32:21.792Z</time></trkpt><trkpt lat="43.9141297" lon="12.9192777"><ele>0.0</ele><time>2026-04-14T17:32:24.789Z</time></trkpt><trkpt lat="43.9142048" lon="12.9193129"><ele>0.0</ele><time>2026-04-14T17:32:27.796Z</time></trkpt><trkpt lat="43.9142907" lon="12.919327"><ele>0.0</ele><time>2026-04-14T17:32:30.796Z</time></trkpt><trkpt lat="43.9143811" lon="12.9193059"><ele>0.0</ele><time>2026-04-14T17:32:33.798Z</time></trkpt><trkpt lat="43.9144484" lon="12.9192577"><ele>0.0</ele><time>2026-04-14T17:32:36.799Z</time></trkpt><trkpt lat="43.9145034" lon="12.9191793"><ele>0.0</ele><time>2026-04-14T17:32:39.799Z</time></trkpt><trkpt lat="43.9144837" lon="12.9190569"><ele>0.0</ele><time>2026-04-14T17:32:42.787Z</time></trkpt><trkpt lat="43.9144327" lon="12.9190029"><ele>0.0</ele><time>2026-04-14T17:32:44.792Z</time></trkpt><trkpt lat="43.914353" lon="12.9189336"><ele>0.0</ele><time>2026-04-14T17:32:47.791Z</time></trkpt><trkpt lat="43.9143007" lon="12.9188803"><ele>0.0</ele><time>2026-04-14T17:32:49.794Z</time></trkpt><trkpt lat="43.9142501" lon="12.9188242"><ele>0.0</ele><time>2026-04-14T17:32:51.792Z</time></trkpt><trkpt lat="43.914185" lon="12.9187441"><ele>0.0</ele><time>2026-04-14T17:32:54.794Z</time></trkpt><trkpt lat="43.9141338" lon="12.9186643"><ele>0.0</ele><time>2026-04-14T17:32:57.791Z</time></trkpt><trkpt lat="43.9140599" lon="12.9185958"><ele>0.0</ele><time>2026-04-14T17:33:00.794Z</time></trkpt><trkpt lat="43.9140015" lon="12.9185206"><ele>0.0</ele><time>2026-04-14T17:33:03.813Z</time></trkpt><trkpt lat="43.9139374" lon="12.9184579"><ele>0.0</ele><time>2026-04-14T17:33:06.794Z</time></trkpt><trkpt lat="43.9138846" lon="12.9183948"><ele>3.0</ele><time>2026-04-14T17:33:09.789Z</time></trkpt></trkseg></trk></gpx>